<?xml version="1.0" encoding="UTF-8" standalone="no" ?>
<gpx xmlns="http://www.topografix.com/GPX/1/1" xmlns:xsi="http://www.w3.org/2001/XMLSchema-instance" xsi:schemaLocation="http://www.topografix.com/GPX/1/1 http://www.topografix.com/GPX/1/1/gpx.xsd" version="1.1" creator="VisuGPX - https://www.visugpx.com">
  <metadata>
    <name>Tour de France 2019</name>
    <desc><![CDATA[4272km en 2 mois en tandem avec notre petit chien dans le panier avant]]></desc>
  </metadata>
  <trk>
    <name><![CDATA[Tracé 20191116-084016]]></name>
    <trkseg>
      <trkpt lat="49.75819" lon="0.37691">
        <ele>19.058</ele>
        <time>2019-11-16T07:43:43Z</time>
      </trkpt>
      <trkpt lat="49.75762" lon="0.3775">
        <ele>25.722</ele>
        <time>2019-11-16T07:44:19Z</time>
      </trkpt>
      <trkpt lat="49.7572" lon="0.37811">
        <ele>28.236</ele>
        <time>2019-11-16T07:44:49Z</time>
      </trkpt>
      <trkpt lat="49.75686" lon="0.37863">
        <ele>28.778</ele>
        <time>2019-11-16T07:45:22Z</time>
      </trkpt>
      <trkpt lat="49.75607" lon="0.37953">
        <ele>25.577</ele>
        <time>2019-11-16T07:46:25Z</time>
      </trkpt>
      <trkpt lat="49.75531" lon="0.37989">
        <ele>20.871</ele>
        <time>2019-11-16T07:46:55Z</time>
      </trkpt>
      <trkpt lat="49.75519" lon="0.38149">
        <ele>25.211</ele>
        <time>2019-11-16T07:47:28Z</time>
      </trkpt>
      <trkpt lat="49.75432" lon="0.38399">
        <ele>27.141</ele>
        <time>2019-11-16T07:47:58Z</time>
      </trkpt>
      <trkpt lat="49.75377" lon="0.38575">
        <ele>27.379</ele>
        <time>2019-11-16T07:48:31Z</time>
      </trkpt>
      <trkpt lat="49.75341" lon="0.38727">
        <ele>16.892</ele>
        <time>2019-11-16T07:49:01Z</time>
      </trkpt>
      <trkpt lat="49.75317" lon="0.3889">
        <ele>18.054</ele>
        <time>2019-11-16T07:49:31Z</time>
      </trkpt>
      <trkpt lat="49.75285" lon="0.39087">
        <ele>16.583</ele>
        <time>2019-11-16T07:50:04Z</time>
      </trkpt>
      <trkpt lat="49.75255" lon="0.39289">
        <ele>18.881</ele>
        <time>2019-11-16T07:50:34Z</time>
      </trkpt>
      <trkpt lat="49.75222" lon="0.39511">
        <ele>19.112</ele>
        <time>2019-11-16T07:51:07Z</time>
      </trkpt>
      <trkpt lat="49.75194" lon="0.39717">
        <ele>25.124</ele>
        <time>2019-11-16T07:51:37Z</time>
      </trkpt>
      <trkpt lat="49.75162" lon="0.39925">
        <ele>31.058</ele>
        <time>2019-11-16T07:52:07Z</time>
      </trkpt>
      <trkpt lat="49.75123" lon="0.40168">
        <ele>24.783</ele>
        <time>2019-11-16T07:52:40Z</time>
      </trkpt>
      <trkpt lat="49.75077" lon="0.40363">
        <ele>17.412</ele>
        <time>2019-11-16T07:53:10Z</time>
      </trkpt>
      <trkpt lat="49.75" lon="0.40546">
        <ele>13.146</ele>
        <time>2019-11-16T07:53:43Z</time>
      </trkpt>
      <trkpt lat="49.74919" lon="0.40721">
        <ele>15.668</ele>
        <time>2019-11-16T07:54:13Z</time>
      </trkpt>
      <trkpt lat="49.74835" lon="0.40892">
        <ele>19.603</ele>
        <time>2019-11-16T07:54:43Z</time>
      </trkpt>
      <trkpt lat="49.74799" lon="0.40971">
        <ele>23.783</ele>
        <time>2019-11-16T07:55:58Z</time>
      </trkpt>
      <trkpt lat="49.74916" lon="0.41131">
        <ele>22.328</ele>
        <time>2019-11-16T07:56:28Z</time>
      </trkpt>
      <trkpt lat="49.74968" lon="0.41323">
        <ele>21.397</ele>
        <time>2019-11-16T07:57:01Z</time>
      </trkpt>
      <trkpt lat="49.74939" lon="0.41524">
        <ele>19.892</ele>
        <time>2019-11-16T07:57:31Z</time>
      </trkpt>
      <trkpt lat="49.75034" lon="0.41648">
        <ele>16.08</ele>
        <time>2019-11-16T07:58:04Z</time>
      </trkpt>
      <trkpt lat="49.75057" lon="0.41869">
        <ele>18.352</ele>
        <time>2019-11-16T07:58:34Z</time>
      </trkpt>
      <trkpt lat="49.75039" lon="0.42077">
        <ele>17.846</ele>
        <time>2019-11-16T07:59:04Z</time>
      </trkpt>
      <trkpt lat="49.75012" lon="0.4227">
        <ele>20.842</ele>
        <time>2019-11-16T07:59:37Z</time>
      </trkpt>
      <trkpt lat="49.75013" lon="0.42454">
        <ele>16.41</ele>
        <time>2019-11-16T08:00:07Z</time>
      </trkpt>
      <trkpt lat="49.74997" lon="0.42625">
        <ele>21.935</ele>
        <time>2019-11-16T08:00:40Z</time>
      </trkpt>
      <trkpt lat="49.74975" lon="0.42759">
        <ele>28.023</ele>
        <time>2019-11-16T08:01:10Z</time>
      </trkpt>
      <trkpt lat="49.74948" lon="0.42971">
        <ele>22.486</ele>
        <time>2019-11-16T08:01:40Z</time>
      </trkpt>
      <trkpt lat="49.74925" lon="0.4323">
        <ele>21.12</ele>
        <time>2019-11-16T08:02:13Z</time>
      </trkpt>
      <trkpt lat="49.74927" lon="0.43437">
        <ele>20.549</ele>
        <time>2019-11-16T08:02:43Z</time>
      </trkpt>
      <trkpt lat="49.7498" lon="0.43658">
        <ele>22.609</ele>
        <time>2019-11-16T08:03:16Z</time>
      </trkpt>
      <trkpt lat="49.74981" lon="0.43836">
        <ele>21.579</ele>
        <time>2019-11-16T08:03:46Z</time>
      </trkpt>
      <trkpt lat="49.74969" lon="0.44038">
        <ele>19.79</ele>
        <time>2019-11-16T08:04:16Z</time>
      </trkpt>
      <trkpt lat="49.74958" lon="0.44198">
        <ele>28.85</ele>
        <time>2019-11-16T08:04:49Z</time>
      </trkpt>
      <trkpt lat="49.74977" lon="0.44322">
        <ele>32.424</ele>
        <time>2019-11-16T08:05:19Z</time>
      </trkpt>
      <trkpt lat="49.7499" lon="0.44451">
        <ele>37.35</ele>
        <time>2019-11-16T08:05:52Z</time>
      </trkpt>
      <trkpt lat="49.74981" lon="0.44571">
        <ele>37.368</ele>
        <time>2019-11-16T08:06:22Z</time>
      </trkpt>
      <trkpt lat="49.74955" lon="0.44688">
        <ele>41.856</ele>
        <time>2019-11-16T08:06:55Z</time>
      </trkpt>
      <trkpt lat="49.7487" lon="0.44879">
        <ele>34.735</ele>
        <time>2019-11-16T08:07:25Z</time>
      </trkpt>
      <trkpt lat="49.74805" lon="0.45097">
        <ele>31.58</ele>
        <time>2019-11-16T08:07:55Z</time>
      </trkpt>
      <trkpt lat="49.74811" lon="0.45391">
        <ele>28.369</ele>
        <time>2019-11-16T08:08:28Z</time>
      </trkpt>
      <trkpt lat="49.74883" lon="0.45576">
        <ele>35.512</ele>
        <time>2019-11-16T08:08:58Z</time>
      </trkpt>
      <trkpt lat="49.74928" lon="0.45732">
        <ele>36.907</ele>
        <time>2019-11-16T08:09:31Z</time>
      </trkpt>
      <trkpt lat="49.7497" lon="0.459">
        <ele>41.446</ele>
        <time>2019-11-16T08:10:01Z</time>
      </trkpt>
      <trkpt lat="49.74963" lon="0.46088">
        <ele>40.263</ele>
        <time>2019-11-16T08:10:31Z</time>
      </trkpt>
      <trkpt lat="49.74879" lon="0.46299">
        <ele>33.296</ele>
        <time>2019-11-16T08:11:04Z</time>
      </trkpt>
      <trkpt lat="49.7478" lon="0.46464">
        <ele>43.011</ele>
        <time>2019-11-16T08:11:34Z</time>
      </trkpt>
      <trkpt lat="49.74676" lon="0.46653">
        <ele>32.745</ele>
        <time>2019-11-16T08:12:07Z</time>
      </trkpt>
      <trkpt lat="49.74629" lon="0.46798">
        <ele>37.778</ele>
        <time>2019-11-16T08:12:37Z</time>
      </trkpt>
      <trkpt lat="49.74599" lon="0.46929">
        <ele>44.796</ele>
        <time>2019-11-16T08:13:07Z</time>
      </trkpt>
      <trkpt lat="49.74558" lon="0.4708">
        <ele>50.049</ele>
        <time>2019-11-16T08:13:40Z</time>
      </trkpt>
      <trkpt lat="49.74465" lon="0.47273">
        <ele>37.337</ele>
        <time>2019-11-16T08:14:10Z</time>
      </trkpt>
      <trkpt lat="49.74484" lon="0.47524">
        <ele>36.498</ele>
        <time>2019-11-16T08:14:43Z</time>
      </trkpt>
      <trkpt lat="49.74479" lon="0.47722">
        <ele>35.895</ele>
        <time>2019-11-16T08:15:13Z</time>
      </trkpt>
      <trkpt lat="49.74488" lon="0.47915">
        <ele>41.457</ele>
        <time>2019-11-16T08:15:46Z</time>
      </trkpt>
      <trkpt lat="49.74488" lon="0.47949">
        <ele>42.845</ele>
        <time>2019-11-16T08:23:55Z</time>
      </trkpt>
      <trkpt lat="49.74539" lon="0.47992">
        <ele>39.919</ele>
        <time>2019-11-16T08:24:25Z</time>
      </trkpt>
      <trkpt lat="49.74627" lon="0.48141">
        <ele>37.873</ele>
        <time>2019-11-16T08:24:58Z</time>
      </trkpt>
      <trkpt lat="49.74699" lon="0.48282">
        <ele>39.659</ele>
        <time>2019-11-16T08:25:28Z</time>
      </trkpt>
      <trkpt lat="49.74756" lon="0.48448">
        <ele>48.385</ele>
        <time>2019-11-16T08:26:01Z</time>
      </trkpt>
      <trkpt lat="49.74783" lon="0.48638">
        <ele>54.446</ele>
        <time>2019-11-16T08:26:31Z</time>
      </trkpt>
      <trkpt lat="49.7479" lon="0.48829">
        <ele>55.321</ele>
        <time>2019-11-16T08:27:01Z</time>
      </trkpt>
      <trkpt lat="49.74768" lon="0.49055">
        <ele>48.555</ele>
        <time>2019-11-16T08:27:34Z</time>
      </trkpt>
      <trkpt lat="49.7473" lon="0.49247">
        <ele>43.357</ele>
        <time>2019-11-16T08:28:04Z</time>
      </trkpt>
      <trkpt lat="49.74694" lon="0.49449">
        <ele>44.439</ele>
        <time>2019-11-16T08:28:37Z</time>
      </trkpt>
      <trkpt lat="49.7469" lon="0.49633">
        <ele>49.864</ele>
        <time>2019-11-16T08:29:07Z</time>
      </trkpt>
      <trkpt lat="49.74714" lon="0.49837">
        <ele>51.635</ele>
        <time>2019-11-16T08:29:37Z</time>
      </trkpt>
      <trkpt lat="49.74772" lon="0.50028">
        <ele>52.112</ele>
        <time>2019-11-16T08:30:10Z</time>
      </trkpt>
      <trkpt lat="49.74832" lon="0.50197">
        <ele>53.372</ele>
        <time>2019-11-16T08:30:40Z</time>
      </trkpt>
      <trkpt lat="49.74862" lon="0.50408">
        <ele>49.961</ele>
        <time>2019-11-16T08:31:13Z</time>
      </trkpt>
      <trkpt lat="49.74846" lon="0.50591">
        <ele>51.657</ele>
        <time>2019-11-16T08:31:43Z</time>
      </trkpt>
      <trkpt lat="49.7479" lon="0.50763">
        <ele>52.939</ele>
        <time>2019-11-16T08:32:16Z</time>
      </trkpt>
      <trkpt lat="49.74713" lon="0.50895">
        <ele>49.142</ele>
        <time>2019-11-16T08:32:46Z</time>
      </trkpt>
      <trkpt lat="49.74623" lon="0.51008">
        <ele>52.703</ele>
        <time>2019-11-16T08:33:16Z</time>
      </trkpt>
      <trkpt lat="49.74511" lon="0.51154">
        <ele>52.189</ele>
        <time>2019-11-16T08:33:49Z</time>
      </trkpt>
      <trkpt lat="49.74457" lon="0.51227">
        <ele>51.124</ele>
        <time>2019-11-16T08:43:01Z</time>
      </trkpt>
      <trkpt lat="49.74398" lon="0.51313">
        <ele>56.145</ele>
        <time>2019-11-16T08:43:34Z</time>
      </trkpt>
      <trkpt lat="49.74328" lon="0.51445">
        <ele>55.089</ele>
        <time>2019-11-16T08:44:04Z</time>
      </trkpt>
      <trkpt lat="49.74277" lon="0.5158">
        <ele>61.157</ele>
        <time>2019-11-16T08:44:34Z</time>
      </trkpt>
      <trkpt lat="49.74209" lon="0.51773">
        <ele>65.786</ele>
        <time>2019-11-16T08:45:07Z</time>
      </trkpt>
      <trkpt lat="49.74136" lon="0.51976">
        <ele>70.898</ele>
        <time>2019-11-16T08:45:37Z</time>
      </trkpt>
      <trkpt lat="49.74065" lon="0.52182">
        <ele>73.55</ele>
        <time>2019-11-16T08:46:10Z</time>
      </trkpt>
      <trkpt lat="49.73993" lon="0.52372">
        <ele>65.751</ele>
        <time>2019-11-16T08:46:40Z</time>
      </trkpt>
      <trkpt lat="49.73962" lon="0.52598">
        <ele>61.608</ele>
        <time>2019-11-16T08:47:13Z</time>
      </trkpt>
      <trkpt lat="49.73984" lon="0.52776">
        <ele>65.009</ele>
        <time>2019-11-16T08:47:43Z</time>
      </trkpt>
      <trkpt lat="49.74019" lon="0.52947">
        <ele>73.172</ele>
        <time>2019-11-16T08:48:13Z</time>
      </trkpt>
      <trkpt lat="49.74024" lon="0.53159">
        <ele>69.16</ele>
        <time>2019-11-16T08:48:46Z</time>
      </trkpt>
      <trkpt lat="49.74004" lon="0.53323">
        <ele>71.995</ele>
        <time>2019-11-16T08:49:16Z</time>
      </trkpt>
      <trkpt lat="49.73951" lon="0.53494">
        <ele>76.515</ele>
        <time>2019-11-16T08:49:49Z</time>
      </trkpt>
      <trkpt lat="49.73885" lon="0.53602">
        <ele>80.359</ele>
        <time>2019-11-16T08:50:19Z</time>
      </trkpt>
      <trkpt lat="49.738" lon="0.53676">
        <ele>81.065</ele>
        <time>2019-11-16T08:50:49Z</time>
      </trkpt>
      <trkpt lat="49.73693" lon="0.53718">
        <ele>84.405</ele>
        <time>2019-11-16T08:51:22Z</time>
      </trkpt>
      <trkpt lat="49.73587" lon="0.5375">
        <ele>76.84</ele>
        <time>2019-11-16T08:51:52Z</time>
      </trkpt>
      <trkpt lat="49.7349" lon="0.53799">
        <ele>77.289</ele>
        <time>2019-11-16T08:52:25Z</time>
      </trkpt>
      <trkpt lat="49.73406" lon="0.53871">
        <ele>86.055</ele>
        <time>2019-11-16T08:52:55Z</time>
      </trkpt>
      <trkpt lat="49.73332" lon="0.53975">
        <ele>91.544</ele>
        <time>2019-11-16T08:53:25Z</time>
      </trkpt>
      <trkpt lat="49.73264" lon="0.54083">
        <ele>93.306</ele>
        <time>2019-11-16T08:53:58Z</time>
      </trkpt>
      <trkpt lat="49.7321" lon="0.54191">
        <ele>99.979</ele>
        <time>2019-11-16T08:54:28Z</time>
      </trkpt>
      <trkpt lat="49.73172" lon="0.54324">
        <ele>107.297</ele>
        <time>2019-11-16T08:55:01Z</time>
      </trkpt>
      <trkpt lat="49.73148" lon="0.54461">
        <ele>112.842</ele>
        <time>2019-11-16T08:55:31Z</time>
      </trkpt>
      <trkpt lat="49.73138" lon="0.54625">
        <ele>116.758</ele>
        <time>2019-11-16T08:56:04Z</time>
      </trkpt>
      <trkpt lat="49.73131" lon="0.54761">
        <ele>117.317</ele>
        <time>2019-11-16T08:56:34Z</time>
      </trkpt>
      <trkpt lat="49.73124" lon="0.54891">
        <ele>119.891</ele>
        <time>2019-11-16T08:57:04Z</time>
      </trkpt>
      <trkpt lat="49.73115" lon="0.5504">
        <ele>121.401</ele>
        <time>2019-11-16T08:57:37Z</time>
      </trkpt>
      <trkpt lat="49.73099" lon="0.55192">
        <ele>111.283</ele>
        <time>2019-11-16T08:58:07Z</time>
      </trkpt>
      <trkpt lat="49.73058" lon="0.55324">
        <ele>114.731</ele>
        <time>2019-11-16T08:58:40Z</time>
      </trkpt>
      <trkpt lat="49.73014" lon="0.55447">
        <ele>119.141</ele>
        <time>2019-11-16T08:59:10Z</time>
      </trkpt>
      <trkpt lat="49.72974" lon="0.55579">
        <ele>116.685</ele>
        <time>2019-11-16T08:59:40Z</time>
      </trkpt>
      <trkpt lat="49.7295" lon="0.55724">
        <ele>113.545</ele>
        <time>2019-11-16T09:00:13Z</time>
      </trkpt>
      <trkpt lat="49.72946" lon="0.55862">
        <ele>118.915</ele>
        <time>2019-11-16T09:00:43Z</time>
      </trkpt>
      <trkpt lat="49.72947" lon="0.5602">
        <ele>126.506</ele>
        <time>2019-11-16T09:01:16Z</time>
      </trkpt>
      <trkpt lat="49.72948" lon="0.56153">
        <ele>121.252</ele>
        <time>2019-11-16T09:01:46Z</time>
      </trkpt>
      <trkpt lat="49.72947" lon="0.56288">
        <ele>122.006</ele>
        <time>2019-11-16T09:02:16Z</time>
      </trkpt>
      <trkpt lat="49.72949" lon="0.56429">
        <ele>125.917</ele>
        <time>2019-11-16T09:02:49Z</time>
      </trkpt>
      <trkpt lat="49.72949" lon="0.5657">
        <ele>128.538</ele>
        <time>2019-11-16T09:03:19Z</time>
      </trkpt>
      <trkpt lat="49.72951" lon="0.56727">
        <ele>130.157</ele>
        <time>2019-11-16T09:03:52Z</time>
      </trkpt>
      <trkpt lat="49.72961" lon="0.56866">
        <ele>125.375</ele>
        <time>2019-11-16T09:04:22Z</time>
      </trkpt>
      <trkpt lat="49.72986" lon="0.57017">
        <ele>128.362</ele>
        <time>2019-11-16T09:04:55Z</time>
      </trkpt>
      <trkpt lat="49.73036" lon="0.57158">
        <ele>140.691</ele>
        <time>2019-11-16T09:05:25Z</time>
      </trkpt>
      <trkpt lat="49.73085" lon="0.57258">
        <ele>148.459</ele>
        <time>2019-11-16T09:09:13Z</time>
      </trkpt>
      <trkpt lat="49.73212" lon="0.57458">
        <ele>144.243</ele>
        <time>2019-11-16T09:09:46Z</time>
      </trkpt>
      <trkpt lat="49.73397" lon="0.5762">
        <ele>132.415</ele>
        <time>2019-11-16T09:10:16Z</time>
      </trkpt>
      <trkpt lat="49.73569" lon="0.57747">
        <ele>120.828</ele>
        <time>2019-11-16T09:11:22Z</time>
      </trkpt>
      <trkpt lat="49.73605" lon="0.57772">
        <ele>118.379</ele>
        <time>2019-11-16T09:13:25Z</time>
      </trkpt>
      <trkpt lat="49.73682" lon="0.57835">
        <ele>127.578</ele>
        <time>2019-11-16T09:13:55Z</time>
      </trkpt>
      <trkpt lat="49.73794" lon="0.57922">
        <ele>126.456</ele>
        <time>2019-11-16T09:14:28Z</time>
      </trkpt>
      <trkpt lat="49.73921" lon="0.58016">
        <ele>124.169</ele>
        <time>2019-11-16T09:14:58Z</time>
      </trkpt>
      <trkpt lat="49.74074" lon="0.58162">
        <ele>117.321</ele>
        <time>2019-11-16T09:15:31Z</time>
      </trkpt>
      <trkpt lat="49.74239" lon="0.58326">
        <ele>116.418</ele>
        <time>2019-11-16T09:16:01Z</time>
      </trkpt>
      <trkpt lat="49.74414" lon="0.58497">
        <ele>111.353</ele>
        <time>2019-11-16T09:16:31Z</time>
      </trkpt>
      <trkpt lat="49.74595" lon="0.58689">
        <ele>108.772</ele>
        <time>2019-11-16T09:17:04Z</time>
      </trkpt>
      <trkpt lat="49.74766" lon="0.58879">
        <ele>109.166</ele>
        <time>2019-11-16T09:17:34Z</time>
      </trkpt>
      <trkpt lat="49.74962" lon="0.59103">
        <ele>113.276</ele>
        <time>2019-11-16T09:18:07Z</time>
      </trkpt>
      <trkpt lat="49.75078" lon="0.59338">
        <ele>113.58</ele>
        <time>2019-11-16T09:18:37Z</time>
      </trkpt>
      <trkpt lat="49.75153" lon="0.59692">
        <ele>92.63</ele>
        <time>2019-11-16T09:19:10Z</time>
      </trkpt>
      <trkpt lat="49.75234" lon="0.59975">
        <ele>84.035</ele>
        <time>2019-11-16T09:19:40Z</time>
      </trkpt>
      <trkpt lat="49.75403" lon="0.60196">
        <ele>76.194</ele>
        <time>2019-11-16T09:20:10Z</time>
      </trkpt>
      <trkpt lat="49.75553" lon="0.60481">
        <ele>75.671</ele>
        <time>2019-11-16T09:20:43Z</time>
      </trkpt>
      <trkpt lat="49.7562" lon="0.6081">
        <ele>74.723</ele>
        <time>2019-11-16T09:21:13Z</time>
      </trkpt>
      <trkpt lat="49.75719" lon="0.61137">
        <ele>67.239</ele>
        <time>2019-11-16T09:21:46Z</time>
      </trkpt>
      <trkpt lat="49.75807" lon="0.61437">
        <ele>66.402</ele>
        <time>2019-11-16T09:22:16Z</time>
      </trkpt>
      <trkpt lat="49.75879" lon="0.61648">
        <ele>51.498</ele>
        <time>2019-11-16T09:22:46Z</time>
      </trkpt>
      <trkpt lat="49.75934" lon="0.6176">
        <ele>52.14</ele>
        <time>2019-11-16T09:26:13Z</time>
      </trkpt>
      <trkpt lat="49.76082" lon="0.61947">
        <ele>44.13</ele>
        <time>2019-11-16T09:26:43Z</time>
      </trkpt>
      <trkpt lat="49.76245" lon="0.62062">
        <ele>39.75</ele>
        <time>2019-11-16T09:27:16Z</time>
      </trkpt>
      <trkpt lat="49.76374" lon="0.62147">
        <ele>40.611</ele>
        <time>2019-11-16T09:27:46Z</time>
      </trkpt>
      <trkpt lat="49.76503" lon="0.62229">
        <ele>49.884</ele>
        <time>2019-11-16T09:28:16Z</time>
      </trkpt>
      <trkpt lat="49.76636" lon="0.62348">
        <ele>68.663</ele>
        <time>2019-11-16T09:28:49Z</time>
      </trkpt>
      <trkpt lat="49.76747" lon="0.625">
        <ele>70.573</ele>
        <time>2019-11-16T09:29:19Z</time>
      </trkpt>
      <trkpt lat="49.76868" lon="0.62697">
        <ele>62.054</ele>
        <time>2019-11-16T09:29:52Z</time>
      </trkpt>
      <trkpt lat="49.76981" lon="0.62865">
        <ele>57.142</ele>
        <time>2019-11-16T09:30:22Z</time>
      </trkpt>
      <trkpt lat="49.7712" lon="0.6302">
        <ele>50.774</ele>
        <time>2019-11-16T09:30:55Z</time>
      </trkpt>
      <trkpt lat="49.77267" lon="0.63167">
        <ele>57.174</ele>
        <time>2019-11-16T09:31:25Z</time>
      </trkpt>
      <trkpt lat="49.77419" lon="0.63399">
        <ele>52.548</ele>
        <time>2019-11-16T09:31:55Z</time>
      </trkpt>
      <trkpt lat="49.77547" lon="0.63505">
        <ele>29.652</ele>
        <time>2019-11-16T09:32:31Z</time>
      </trkpt>
      <trkpt lat="49.77717" lon="0.63595">
        <ele>27.157</ele>
        <time>2019-11-16T09:33:01Z</time>
      </trkpt>
      <trkpt lat="49.779" lon="0.63693">
        <ele>32.33</ele>
        <time>2019-11-16T09:33:34Z</time>
      </trkpt>
      <trkpt lat="49.78073" lon="0.6374">
        <ele>26.132</ele>
        <time>2019-11-16T09:34:04Z</time>
      </trkpt>
      <trkpt lat="49.78235" lon="0.63691">
        <ele>23.532</ele>
        <time>2019-11-16T09:34:34Z</time>
      </trkpt>
      <trkpt lat="49.78386" lon="0.63652">
        <ele>25.726</ele>
        <time>2019-11-16T09:35:07Z</time>
      </trkpt>
      <trkpt lat="49.78512" lon="0.63696">
        <ele>36.518</ele>
        <time>2019-11-16T09:35:37Z</time>
      </trkpt>
      <trkpt lat="49.78616" lon="0.63829">
        <ele>36.194</ele>
        <time>2019-11-16T09:36:10Z</time>
      </trkpt>
      <trkpt lat="49.78663" lon="0.64008">
        <ele>33.899</ele>
        <time>2019-11-16T09:36:40Z</time>
      </trkpt>
      <trkpt lat="49.78678" lon="0.64135">
        <ele>36.797</ele>
        <time>2019-11-16T09:37:25Z</time>
      </trkpt>
      <trkpt lat="49.78688" lon="0.64276">
        <ele>34.96</ele>
        <time>2019-11-16T09:37:55Z</time>
      </trkpt>
      <trkpt lat="49.7866" lon="0.64481">
        <ele>28.237</ele>
        <time>2019-11-16T09:38:25Z</time>
      </trkpt>
      <trkpt lat="49.78573" lon="0.64633">
        <ele>37</ele>
        <time>2019-11-16T09:38:58Z</time>
      </trkpt>
      <trkpt lat="49.78485" lon="0.64705">
        <ele>39.38</ele>
        <time>2019-11-16T09:39:28Z</time>
      </trkpt>
      <trkpt lat="49.78405" lon="0.64773">
        <ele>36.987</ele>
        <time>2019-11-16T09:40:01Z</time>
      </trkpt>
      <trkpt lat="49.78301" lon="0.6488">
        <ele>44.088</ele>
        <time>2019-11-16T09:40:31Z</time>
      </trkpt>
      <trkpt lat="49.78237" lon="0.65025">
        <ele>50.796</ele>
        <time>2019-11-16T09:41:01Z</time>
      </trkpt>
      <trkpt lat="49.78186" lon="0.65159">
        <ele>48.116</ele>
        <time>2019-11-16T09:41:34Z</time>
      </trkpt>
      <trkpt lat="49.78137" lon="0.65234">
        <ele>57.45</ele>
        <time>2019-11-16T09:42:04Z</time>
      </trkpt>
      <trkpt lat="49.78082" lon="0.65329">
        <ele>61.149</ele>
        <time>2019-11-16T09:42:37Z</time>
      </trkpt>
      <trkpt lat="49.78026" lon="0.65414">
        <ele>63.869</ele>
        <time>2019-11-16T09:43:07Z</time>
      </trkpt>
      <trkpt lat="49.77936" lon="0.65539">
        <ele>55.15</ele>
        <time>2019-11-16T09:43:37Z</time>
      </trkpt>
      <trkpt lat="49.779" lon="0.65635">
        <ele>61.252</ele>
        <time>2019-11-16T09:44:10Z</time>
      </trkpt>
      <trkpt lat="49.7789" lon="0.65736">
        <ele>74.063</ele>
        <time>2019-11-16T09:44:40Z</time>
      </trkpt>
      <trkpt lat="49.77849" lon="0.65838">
        <ele>76.399</ele>
        <time>2019-11-16T09:45:13Z</time>
      </trkpt>
      <trkpt lat="49.778" lon="0.65897">
        <ele>82.833</ele>
        <time>2019-11-16T09:45:43Z</time>
      </trkpt>
      <trkpt lat="49.77747" lon="0.65971">
        <ele>79.762</ele>
        <time>2019-11-16T09:46:16Z</time>
      </trkpt>
      <trkpt lat="49.77726" lon="0.6606">
        <ele>77.251</ele>
        <time>2019-11-16T09:46:46Z</time>
      </trkpt>
      <trkpt lat="49.77683" lon="0.66146">
        <ele>78.528</ele>
        <time>2019-11-16T09:47:16Z</time>
      </trkpt>
      <trkpt lat="49.77629" lon="0.66195">
        <ele>85.692</ele>
        <time>2019-11-16T09:47:49Z</time>
      </trkpt>
      <trkpt lat="49.77596" lon="0.66264">
        <ele>82.187</ele>
        <time>2019-11-16T09:48:19Z</time>
      </trkpt>
      <trkpt lat="49.77576" lon="0.66352">
        <ele>83.523</ele>
        <time>2019-11-16T09:48:52Z</time>
      </trkpt>
      <trkpt lat="49.77546" lon="0.66427">
        <ele>84.279</ele>
        <time>2019-11-16T09:49:22Z</time>
      </trkpt>
      <trkpt lat="49.77541" lon="0.66514">
        <ele>88.021</ele>
        <time>2019-11-16T09:49:52Z</time>
      </trkpt>
      <trkpt lat="49.77525" lon="0.66603">
        <ele>89.82</ele>
        <time>2019-11-16T09:50:25Z</time>
      </trkpt>
      <trkpt lat="49.77534" lon="0.66689">
        <ele>92.813</ele>
        <time>2019-11-16T09:50:55Z</time>
      </trkpt>
      <trkpt lat="49.77545" lon="0.66779">
        <ele>98.135</ele>
        <time>2019-11-16T09:51:28Z</time>
      </trkpt>
      <trkpt lat="49.77507" lon="0.66855">
        <ele>99.333</ele>
        <time>2019-11-16T09:51:58Z</time>
      </trkpt>
      <trkpt lat="49.77461" lon="0.66896">
        <ele>105.615</ele>
        <time>2019-11-16T09:52:28Z</time>
      </trkpt>
      <trkpt lat="49.77428" lon="0.66969">
        <ele>105.018</ele>
        <time>2019-11-16T09:53:01Z</time>
      </trkpt>
      <trkpt lat="49.77426" lon="0.67095">
        <ele>102.533</ele>
        <time>2019-11-16T09:53:31Z</time>
      </trkpt>
      <trkpt lat="49.774" lon="0.67218">
        <ele>103.465</ele>
        <time>2019-11-16T09:54:04Z</time>
      </trkpt>
      <trkpt lat="49.77336" lon="0.67236">
        <ele>110.406</ele>
        <time>2019-11-16T09:54:34Z</time>
      </trkpt>
      <trkpt lat="49.77311" lon="0.67353">
        <ele>107.786</ele>
        <time>2019-11-16T09:55:07Z</time>
      </trkpt>
      <trkpt lat="49.77288" lon="0.67489">
        <ele>108.205</ele>
        <time>2019-11-16T09:55:37Z</time>
      </trkpt>
      <trkpt lat="49.77259" lon="0.67661">
        <ele>108.79</ele>
        <time>2019-11-16T09:56:07Z</time>
      </trkpt>
      <trkpt lat="49.77215" lon="0.67857">
        <ele>104.718</ele>
        <time>2019-11-16T09:56:40Z</time>
      </trkpt>
      <trkpt lat="49.77171" lon="0.68018">
        <ele>106.823</ele>
        <time>2019-11-16T09:57:10Z</time>
      </trkpt>
      <trkpt lat="49.77116" lon="0.68165">
        <ele>109.257</ele>
        <time>2019-11-16T09:57:43Z</time>
      </trkpt>
      <trkpt lat="49.77063" lon="0.68298">
        <ele>109.015</ele>
        <time>2019-11-16T09:58:13Z</time>
      </trkpt>
      <trkpt lat="49.76944" lon="0.68385">
        <ele>108.543</ele>
        <time>2019-11-16T09:58:43Z</time>
      </trkpt>
      <trkpt lat="49.7675" lon="0.68435">
        <ele>104.975</ele>
        <time>2019-11-16T09:59:16Z</time>
      </trkpt>
      <trkpt lat="49.76571" lon="0.68432">
        <ele>100.578</ele>
        <time>2019-11-16T09:59:46Z</time>
      </trkpt>
      <trkpt lat="49.76576" lon="0.68607">
        <ele>91.755</ele>
        <time>2019-11-16T10:00:19Z</time>
      </trkpt>
      <trkpt lat="49.7661" lon="0.68758">
        <ele>96.405</ele>
        <time>2019-11-16T10:00:49Z</time>
      </trkpt>
      <trkpt lat="49.7665" lon="0.68909">
        <ele>97.91</ele>
        <time>2019-11-16T10:01:19Z</time>
      </trkpt>
      <trkpt lat="49.76695" lon="0.69071">
        <ele>102.174</ele>
        <time>2019-11-16T10:01:52Z</time>
      </trkpt>
      <trkpt lat="49.76735" lon="0.69217">
        <ele>103.296</ele>
        <time>2019-11-16T10:02:22Z</time>
      </trkpt>
      <trkpt lat="49.76777" lon="0.69373">
        <ele>106.227</ele>
        <time>2019-11-16T10:02:55Z</time>
      </trkpt>
      <trkpt lat="49.76818" lon="0.69519">
        <ele>106.762</ele>
        <time>2019-11-16T10:03:25Z</time>
      </trkpt>
      <trkpt lat="49.7686" lon="0.69666">
        <ele>113.677</ele>
        <time>2019-11-16T10:03:58Z</time>
      </trkpt>
      <trkpt lat="49.76898" lon="0.6981">
        <ele>111.808</ele>
        <time>2019-11-16T10:04:28Z</time>
      </trkpt>
      <trkpt lat="49.76906" lon="0.69961">
        <ele>103.967</ele>
        <time>2019-11-16T10:04:58Z</time>
      </trkpt>
      <trkpt lat="49.76874" lon="0.70124">
        <ele>103.728</ele>
        <time>2019-11-16T10:05:31Z</time>
      </trkpt>
      <trkpt lat="49.76814" lon="0.70241">
        <ele>108.663</ele>
        <time>2019-11-16T10:06:01Z</time>
      </trkpt>
      <trkpt lat="49.76784" lon="0.70275">
        <ele>109.523</ele>
        <time>2019-11-16T10:11:04Z</time>
      </trkpt>
      <trkpt lat="49.76765" lon="0.70303">
        <ele>108.136</ele>
        <time>2019-11-16T10:22:49Z</time>
      </trkpt>
      <trkpt lat="49.76743" lon="0.70404">
        <ele>113.857</ele>
        <time>2019-11-16T10:23:19Z</time>
      </trkpt>
      <trkpt lat="49.76771" lon="0.70568">
        <ele>112.814</ele>
        <time>2019-11-16T10:23:52Z</time>
      </trkpt>
      <trkpt lat="49.76673" lon="0.70642">
        <ele>115.875</ele>
        <time>2019-11-16T10:24:22Z</time>
      </trkpt>
      <trkpt lat="49.76575" lon="0.70761">
        <ele>119.112</ele>
        <time>2019-11-16T10:24:55Z</time>
      </trkpt>
      <trkpt lat="49.76525" lon="0.70895">
        <ele>119.419</ele>
        <time>2019-11-16T10:25:25Z</time>
      </trkpt>
      <trkpt lat="49.76459" lon="0.71029">
        <ele>119.142</ele>
        <time>2019-11-16T10:25:55Z</time>
      </trkpt>
      <trkpt lat="49.76422" lon="0.71155">
        <ele>127.658</ele>
        <time>2019-11-16T10:26:28Z</time>
      </trkpt>
      <trkpt lat="49.76342" lon="0.71254">
        <ele>124.059</ele>
        <time>2019-11-16T10:26:58Z</time>
      </trkpt>
      <trkpt lat="49.7622" lon="0.71351">
        <ele>120.154</ele>
        <time>2019-11-16T10:27:31Z</time>
      </trkpt>
      <trkpt lat="49.76128" lon="0.71433">
        <ele>125.358</ele>
        <time>2019-11-16T10:28:01Z</time>
      </trkpt>
      <trkpt lat="49.76159" lon="0.71596">
        <ele>125.645</ele>
        <time>2019-11-16T10:28:34Z</time>
      </trkpt>
      <trkpt lat="49.76222" lon="0.7174">
        <ele>122.703</ele>
        <time>2019-11-16T10:29:04Z</time>
      </trkpt>
      <trkpt lat="49.76279" lon="0.71897">
        <ele>122.643</ele>
        <time>2019-11-16T10:29:34Z</time>
      </trkpt>
      <trkpt lat="49.76354" lon="0.7207">
        <ele>122.395</ele>
        <time>2019-11-16T10:30:07Z</time>
      </trkpt>
      <trkpt lat="49.76408" lon="0.72252">
        <ele>120.084</ele>
        <time>2019-11-16T10:30:37Z</time>
      </trkpt>
      <trkpt lat="49.76439" lon="0.72412">
        <ele>121.129</ele>
        <time>2019-11-16T10:31:10Z</time>
      </trkpt>
      <trkpt lat="49.7645" lon="0.72564">
        <ele>122.281</ele>
        <time>2019-11-16T10:31:40Z</time>
      </trkpt>
      <trkpt lat="49.7646" lon="0.72717">
        <ele>121.914</ele>
        <time>2019-11-16T10:32:10Z</time>
      </trkpt>
      <trkpt lat="49.76481" lon="0.72887">
        <ele>121.761</ele>
        <time>2019-11-16T10:32:43Z</time>
      </trkpt>
      <trkpt lat="49.765" lon="0.73031">
        <ele>124.854</ele>
        <time>2019-11-16T10:33:13Z</time>
      </trkpt>
      <trkpt lat="49.76524" lon="0.73195">
        <ele>125.461</ele>
        <time>2019-11-16T10:33:46Z</time>
      </trkpt>
      <trkpt lat="49.76564" lon="0.73322">
        <ele>126.583</ele>
        <time>2019-11-16T10:34:16Z</time>
      </trkpt>
      <trkpt lat="49.76535" lon="0.73484">
        <ele>128.832</ele>
        <time>2019-11-16T10:34:49Z</time>
      </trkpt>
      <trkpt lat="49.76528" lon="0.73642">
        <ele>126.793</ele>
        <time>2019-11-16T10:35:19Z</time>
      </trkpt>
      <trkpt lat="49.76521" lon="0.73843">
        <ele>124.275</ele>
        <time>2019-11-16T10:35:49Z</time>
      </trkpt>
      <trkpt lat="49.76514" lon="0.74121">
        <ele>119.012</ele>
        <time>2019-11-16T10:36:22Z</time>
      </trkpt>
      <trkpt lat="49.7658" lon="0.74312">
        <ele>120.044</ele>
        <time>2019-11-16T10:36:52Z</time>
      </trkpt>
      <trkpt lat="49.76715" lon="0.74396">
        <ele>122.43</ele>
        <time>2019-11-16T10:37:25Z</time>
      </trkpt>
      <trkpt lat="49.76813" lon="0.74442">
        <ele>126.094</ele>
        <time>2019-11-16T10:37:58Z</time>
      </trkpt>
      <trkpt lat="49.76911" lon="0.74511">
        <ele>125.732</ele>
        <time>2019-11-16T10:38:28Z</time>
      </trkpt>
      <trkpt lat="49.77003" lon="0.74578">
        <ele>126.272</ele>
        <time>2019-11-16T10:39:01Z</time>
      </trkpt>
      <trkpt lat="49.77088" lon="0.74528">
        <ele>129.882</ele>
        <time>2019-11-16T10:39:31Z</time>
      </trkpt>
      <trkpt lat="49.7718" lon="0.74471">
        <ele>130.763</ele>
        <time>2019-11-16T10:40:04Z</time>
      </trkpt>
      <trkpt lat="49.77319" lon="0.744">
        <ele>128.315</ele>
        <time>2019-11-16T10:40:34Z</time>
      </trkpt>
      <trkpt lat="49.77533" lon="0.7436">
        <ele>120.955</ele>
        <time>2019-11-16T10:41:04Z</time>
      </trkpt>
      <trkpt lat="49.7773" lon="0.74336">
        <ele>117.046</ele>
        <time>2019-11-16T10:41:37Z</time>
      </trkpt>
      <trkpt lat="49.77873" lon="0.74336">
        <ele>117.226</ele>
        <time>2019-11-16T10:42:07Z</time>
      </trkpt>
      <trkpt lat="49.7804" lon="0.74336">
        <ele>119.034</ele>
        <time>2019-11-16T10:42:40Z</time>
      </trkpt>
      <trkpt lat="49.78216" lon="0.7436">
        <ele>114.105</ele>
        <time>2019-11-16T10:43:10Z</time>
      </trkpt>
      <trkpt lat="49.78412" lon="0.74366">
        <ele>110.458</ele>
        <time>2019-11-16T10:43:43Z</time>
      </trkpt>
      <trkpt lat="49.78596" lon="0.74415">
        <ele>110.488</ele>
        <time>2019-11-16T10:44:13Z</time>
      </trkpt>
      <trkpt lat="49.78771" lon="0.74403">
        <ele>110.458</ele>
        <time>2019-11-16T10:44:43Z</time>
      </trkpt>
      <trkpt lat="49.78964" lon="0.74369">
        <ele>101.152</ele>
        <time>2019-11-16T10:45:16Z</time>
      </trkpt>
      <trkpt lat="49.79126" lon="0.74391">
        <ele>99.76</ele>
        <time>2019-11-16T10:45:46Z</time>
      </trkpt>
      <trkpt lat="49.79255" lon="0.74449">
        <ele>100.659</ele>
        <time>2019-11-16T10:46:19Z</time>
      </trkpt>
      <trkpt lat="49.7921" lon="0.74602">
        <ele>100.217</ele>
        <time>2019-11-16T10:46:49Z</time>
      </trkpt>
      <trkpt lat="49.7923" lon="0.74762">
        <ele>99.526</ele>
        <time>2019-11-16T10:47:19Z</time>
      </trkpt>
      <trkpt lat="49.79311" lon="0.74922">
        <ele>98.006</ele>
        <time>2019-11-16T10:47:52Z</time>
      </trkpt>
      <trkpt lat="49.79375" lon="0.75051">
        <ele>99.563</ele>
        <time>2019-11-16T10:48:22Z</time>
      </trkpt>
      <trkpt lat="49.79457" lon="0.7521">
        <ele>101.574</ele>
        <time>2019-11-16T10:48:55Z</time>
      </trkpt>
      <trkpt lat="49.79548" lon="0.75381">
        <ele>96.198</ele>
        <time>2019-11-16T10:49:25Z</time>
      </trkpt>
      <trkpt lat="49.79661" lon="0.75597">
        <ele>91.898</ele>
        <time>2019-11-16T10:49:55Z</time>
      </trkpt>
      <trkpt lat="49.79646" lon="0.75731">
        <ele>97.125</ele>
        <time>2019-11-16T10:50:28Z</time>
      </trkpt>
      <trkpt lat="49.79639" lon="0.75857">
        <ele>103.162</ele>
        <time>2019-11-16T10:50:58Z</time>
      </trkpt>
      <trkpt lat="49.7966" lon="0.75998">
        <ele>107.847</ele>
        <time>2019-11-16T10:51:31Z</time>
      </trkpt>
      <trkpt lat="49.79664" lon="0.76137">
        <ele>110.183</ele>
        <time>2019-11-16T10:52:01Z</time>
      </trkpt>
      <trkpt lat="49.79662" lon="0.76349">
        <ele>103.868</ele>
        <time>2019-11-16T10:52:34Z</time>
      </trkpt>
      <trkpt lat="49.79613" lon="0.76564">
        <ele>101.973</ele>
        <time>2019-11-16T10:53:04Z</time>
      </trkpt>
      <trkpt lat="49.79594" lon="0.76799">
        <ele>97.363</ele>
        <time>2019-11-16T10:53:34Z</time>
      </trkpt>
      <trkpt lat="49.7958" lon="0.77111">
        <ele>91.29</ele>
        <time>2019-11-16T10:54:07Z</time>
      </trkpt>
      <trkpt lat="49.79594" lon="0.77418">
        <ele>86.894</ele>
        <time>2019-11-16T10:54:37Z</time>
      </trkpt>
      <trkpt lat="49.79638" lon="0.77597">
        <ele>89.525</ele>
        <time>2019-11-16T10:55:10Z</time>
      </trkpt>
      <trkpt lat="49.79679" lon="0.77724">
        <ele>91.517</ele>
        <time>2019-11-16T10:55:40Z</time>
      </trkpt>
      <trkpt lat="49.79731" lon="0.77881">
        <ele>93.768</ele>
        <time>2019-11-16T10:56:10Z</time>
      </trkpt>
      <trkpt lat="49.79687" lon="0.78071">
        <ele>95.83</ele>
        <time>2019-11-16T10:56:43Z</time>
      </trkpt>
      <trkpt lat="49.79677" lon="0.78213">
        <ele>97.209</ele>
        <time>2019-11-16T10:57:13Z</time>
      </trkpt>
      <trkpt lat="49.7972" lon="0.78365">
        <ele>102.415</ele>
        <time>2019-11-16T10:57:46Z</time>
      </trkpt>
      <trkpt lat="49.79779" lon="0.78508">
        <ele>103.845</ele>
        <time>2019-11-16T10:58:16Z</time>
      </trkpt>
      <trkpt lat="49.7982" lon="0.78654">
        <ele>109</ele>
        <time>2019-11-16T10:58:46Z</time>
      </trkpt>
      <trkpt lat="49.79879" lon="0.78842">
        <ele>103.181</ele>
        <time>2019-11-16T10:59:19Z</time>
      </trkpt>
      <trkpt lat="49.79935" lon="0.78997">
        <ele>105.891</ele>
        <time>2019-11-16T10:59:49Z</time>
      </trkpt>
      <trkpt lat="49.79989" lon="0.79201">
        <ele>110.06</ele>
        <time>2019-11-16T11:00:22Z</time>
      </trkpt>
      <trkpt lat="49.80021" lon="0.79408">
        <ele>106.308</ele>
        <time>2019-11-16T11:00:52Z</time>
      </trkpt>
      <trkpt lat="49.80015" lon="0.79636">
        <ele>96.592</ele>
        <time>2019-11-16T11:01:25Z</time>
      </trkpt>
      <trkpt lat="49.80014" lon="0.79822">
        <ele>97.841</ele>
        <time>2019-11-16T11:01:55Z</time>
      </trkpt>
      <trkpt lat="49.80036" lon="0.80006">
        <ele>98.097</ele>
        <time>2019-11-16T11:02:25Z</time>
      </trkpt>
      <trkpt lat="49.80072" lon="0.80234">
        <ele>97.108</ele>
        <time>2019-11-16T11:02:58Z</time>
      </trkpt>
      <trkpt lat="49.80087" lon="0.80432">
        <ele>98.234</ele>
        <time>2019-11-16T11:03:28Z</time>
      </trkpt>
      <trkpt lat="49.80084" lon="0.80649">
        <ele>98.143</ele>
        <time>2019-11-16T11:04:01Z</time>
      </trkpt>
      <trkpt lat="49.80126" lon="0.80812">
        <ele>97.577</ele>
        <time>2019-11-16T11:04:31Z</time>
      </trkpt>
      <trkpt lat="49.80223" lon="0.80924">
        <ele>97.924</ele>
        <time>2019-11-16T11:05:01Z</time>
      </trkpt>
      <trkpt lat="49.80359" lon="0.80905">
        <ele>93.692</ele>
        <time>2019-11-16T11:05:34Z</time>
      </trkpt>
      <trkpt lat="49.8052" lon="0.80765">
        <ele>92.07</ele>
        <time>2019-11-16T11:06:04Z</time>
      </trkpt>
      <trkpt lat="49.8069" lon="0.80734">
        <ele>91.549</ele>
        <time>2019-11-16T11:06:37Z</time>
      </trkpt>
      <trkpt lat="49.80758" lon="0.8053">
        <ele>92.954</ele>
        <time>2019-11-16T11:07:07Z</time>
      </trkpt>
      <trkpt lat="49.80891" lon="0.80267">
        <ele>89.212</ele>
        <time>2019-11-16T11:07:37Z</time>
      </trkpt>
      <trkpt lat="49.81086" lon="0.80275">
        <ele>86.655</ele>
        <time>2019-11-16T11:08:10Z</time>
      </trkpt>
      <trkpt lat="49.81247" lon="0.80322">
        <ele>85.85</ele>
        <time>2019-11-16T11:08:40Z</time>
      </trkpt>
      <trkpt lat="49.81423" lon="0.80353">
        <ele>85.741</ele>
        <time>2019-11-16T11:09:13Z</time>
      </trkpt>
      <trkpt lat="49.81396" lon="0.8057">
        <ele>89.997</ele>
        <time>2019-11-16T11:09:43Z</time>
      </trkpt>
      <trkpt lat="49.8149" lon="0.80707">
        <ele>85.912</ele>
        <time>2019-11-16T11:10:16Z</time>
      </trkpt>
      <trkpt lat="49.81608" lon="0.80753">
        <ele>85.563</ele>
        <time>2019-11-16T11:10:46Z</time>
      </trkpt>
      <trkpt lat="49.81659" lon="0.80847">
        <ele>92.82</ele>
        <time>2019-11-16T11:11:16Z</time>
      </trkpt>
      <trkpt lat="49.8172" lon="0.81024">
        <ele>101.199</ele>
        <time>2019-11-16T11:11:49Z</time>
      </trkpt>
      <trkpt lat="49.81787" lon="0.81182">
        <ele>88.008</ele>
        <time>2019-11-16T11:12:19Z</time>
      </trkpt>
      <trkpt lat="49.81854" lon="0.81335">
        <ele>89.321</ele>
        <time>2019-11-16T11:12:52Z</time>
      </trkpt>
      <trkpt lat="49.81909" lon="0.81498">
        <ele>88.403</ele>
        <time>2019-11-16T11:13:22Z</time>
      </trkpt>
      <trkpt lat="49.81948" lon="0.81676">
        <ele>89.085</ele>
        <time>2019-11-16T11:13:52Z</time>
      </trkpt>
      <trkpt lat="49.81959" lon="0.81886">
        <ele>88.353</ele>
        <time>2019-11-16T11:14:25Z</time>
      </trkpt>
      <trkpt lat="49.82" lon="0.82081">
        <ele>85.843</ele>
        <time>2019-11-16T11:14:55Z</time>
      </trkpt>
      <trkpt lat="49.82078" lon="0.82303">
        <ele>82.9</ele>
        <time>2019-11-16T11:15:28Z</time>
      </trkpt>
      <trkpt lat="49.82164" lon="0.82548">
        <ele>78.821</ele>
        <time>2019-11-16T11:15:58Z</time>
      </trkpt>
      <trkpt lat="49.82247" lon="0.82831">
        <ele>75.09</ele>
        <time>2019-11-16T11:16:31Z</time>
      </trkpt>
      <trkpt lat="49.8229" lon="0.83">
        <ele>78.347</ele>
        <time>2019-11-16T11:17:01Z</time>
      </trkpt>
      <trkpt lat="49.82336" lon="0.83162">
        <ele>77.228</ele>
        <time>2019-11-16T11:17:31Z</time>
      </trkpt>
      <trkpt lat="49.82371" lon="0.8335">
        <ele>79.139</ele>
        <time>2019-11-16T11:18:04Z</time>
      </trkpt>
      <trkpt lat="49.82377" lon="0.83571">
        <ele>80.484</ele>
        <time>2019-11-16T11:18:34Z</time>
      </trkpt>
      <trkpt lat="49.82341" lon="0.83857">
        <ele>78.249</ele>
        <time>2019-11-16T11:19:07Z</time>
      </trkpt>
      <trkpt lat="49.82331" lon="0.8418">
        <ele>70.868</ele>
        <time>2019-11-16T11:19:37Z</time>
      </trkpt>
      <trkpt lat="49.82424" lon="0.84463">
        <ele>51.774</ele>
        <time>2019-11-16T11:20:07Z</time>
      </trkpt>
      <trkpt lat="49.8252" lon="0.84565">
        <ele>42.214</ele>
        <time>2019-11-16T11:20:40Z</time>
      </trkpt>
      <trkpt lat="49.82637" lon="0.8465">
        <ele>49.086</ele>
        <time>2019-11-16T11:21:10Z</time>
      </trkpt>
      <trkpt lat="49.8278" lon="0.84786">
        <ele>48.349</ele>
        <time>2019-11-16T11:21:43Z</time>
      </trkpt>
      <trkpt lat="49.82877" lon="0.84992">
        <ele>51.424</ele>
        <time>2019-11-16T11:22:13Z</time>
      </trkpt>
      <trkpt lat="49.82907" lon="0.8519">
        <ele>54.233</ele>
        <time>2019-11-16T11:22:43Z</time>
      </trkpt>
      <trkpt lat="49.82917" lon="0.85399">
        <ele>55.177</ele>
        <time>2019-11-16T11:23:16Z</time>
      </trkpt>
      <trkpt lat="49.82912" lon="0.85536">
        <ele>60.81</ele>
        <time>2019-11-16T11:23:46Z</time>
      </trkpt>
      <trkpt lat="49.82875" lon="0.85683">
        <ele>71.226</ele>
        <time>2019-11-16T11:24:19Z</time>
      </trkpt>
      <trkpt lat="49.82821" lon="0.8579">
        <ele>69.613</ele>
        <time>2019-11-16T11:24:49Z</time>
      </trkpt>
      <trkpt lat="49.82754" lon="0.8589">
        <ele>65.875</ele>
        <time>2019-11-16T11:25:22Z</time>
      </trkpt>
      <trkpt lat="49.8268" lon="0.85984">
        <ele>68.745</ele>
        <time>2019-11-16T11:25:52Z</time>
      </trkpt>
      <trkpt lat="49.8262" lon="0.86073">
        <ele>66.89</ele>
        <time>2019-11-16T11:26:22Z</time>
      </trkpt>
      <trkpt lat="49.82548" lon="0.86171">
        <ele>71.318</ele>
        <time>2019-11-16T11:26:55Z</time>
      </trkpt>
      <trkpt lat="49.82486" lon="0.86274">
        <ele>73.236</ele>
        <time>2019-11-16T11:27:25Z</time>
      </trkpt>
      <trkpt lat="49.82445" lon="0.86403">
        <ele>75.395</ele>
        <time>2019-11-16T11:27:58Z</time>
      </trkpt>
      <trkpt lat="49.82431" lon="0.86527">
        <ele>79.162</ele>
        <time>2019-11-16T11:28:28Z</time>
      </trkpt>
      <trkpt lat="49.82436" lon="0.86669">
        <ele>82.884</ele>
        <time>2019-11-16T11:28:58Z</time>
      </trkpt>
      <trkpt lat="49.82453" lon="0.86816">
        <ele>74.398</ele>
        <time>2019-11-16T11:29:31Z</time>
      </trkpt>
      <trkpt lat="49.82469" lon="0.86943">
        <ele>81.607</ele>
        <time>2019-11-16T11:30:01Z</time>
      </trkpt>
      <trkpt lat="49.8248" lon="0.87078">
        <ele>87.677</ele>
        <time>2019-11-16T11:30:34Z</time>
      </trkpt>
      <trkpt lat="49.8249" lon="0.87207">
        <ele>86.49</ele>
        <time>2019-11-16T11:31:04Z</time>
      </trkpt>
      <trkpt lat="49.82501" lon="0.87335">
        <ele>86.517</ele>
        <time>2019-11-16T11:31:34Z</time>
      </trkpt>
      <trkpt lat="49.82514" lon="0.87488">
        <ele>82.234</ele>
        <time>2019-11-16T11:32:07Z</time>
      </trkpt>
      <trkpt lat="49.82523" lon="0.87655">
        <ele>78.075</ele>
        <time>2019-11-16T11:32:37Z</time>
      </trkpt>
      <trkpt lat="49.82508" lon="0.87834">
        <ele>79.655</ele>
        <time>2019-11-16T11:33:10Z</time>
      </trkpt>
      <trkpt lat="49.82484" lon="0.87997">
        <ele>82.009</ele>
        <time>2019-11-16T11:33:40Z</time>
      </trkpt>
      <trkpt lat="49.82459" lon="0.88183">
        <ele>82.259</ele>
        <time>2019-11-16T11:34:13Z</time>
      </trkpt>
      <trkpt lat="49.82436" lon="0.8835">
        <ele>85.116</ele>
        <time>2019-11-16T11:34:43Z</time>
      </trkpt>
      <trkpt lat="49.82413" lon="0.88524">
        <ele>81.285</ele>
        <time>2019-11-16T11:35:13Z</time>
      </trkpt>
      <trkpt lat="49.82386" lon="0.88707">
        <ele>84.719</ele>
        <time>2019-11-16T11:35:46Z</time>
      </trkpt>
      <trkpt lat="49.82367" lon="0.88852">
        <ele>81.59</ele>
        <time>2019-11-16T11:36:16Z</time>
      </trkpt>
      <trkpt lat="49.82345" lon="0.89011">
        <ele>84.091</ele>
        <time>2019-11-16T11:36:49Z</time>
      </trkpt>
      <trkpt lat="49.82326" lon="0.89142">
        <ele>86.897</ele>
        <time>2019-11-16T11:37:19Z</time>
      </trkpt>
      <trkpt lat="49.82306" lon="0.89286">
        <ele>87.686</ele>
        <time>2019-11-16T11:37:49Z</time>
      </trkpt>
      <trkpt lat="49.82288" lon="0.89444">
        <ele>85.532</ele>
        <time>2019-11-16T11:38:22Z</time>
      </trkpt>
      <trkpt lat="49.82268" lon="0.8958">
        <ele>94.163</ele>
        <time>2019-11-16T11:38:52Z</time>
      </trkpt>
      <trkpt lat="49.82249" lon="0.89764">
        <ele>94.442</ele>
        <time>2019-11-16T11:39:25Z</time>
      </trkpt>
      <trkpt lat="49.82236" lon="0.89998">
        <ele>94.045</ele>
        <time>2019-11-16T11:39:55Z</time>
      </trkpt>
      <trkpt lat="49.82241" lon="0.90228">
        <ele>83.565</ele>
        <time>2019-11-16T11:40:25Z</time>
      </trkpt>
      <trkpt lat="49.82251" lon="0.90449">
        <ele>79.589</ele>
        <time>2019-11-16T11:40:58Z</time>
      </trkpt>
      <trkpt lat="49.82254" lon="0.90613">
        <ele>85.567</ele>
        <time>2019-11-16T11:41:28Z</time>
      </trkpt>
      <trkpt lat="49.82284" lon="0.90764">
        <ele>85.754</ele>
        <time>2019-11-16T11:42:01Z</time>
      </trkpt>
      <trkpt lat="49.82326" lon="0.90881">
        <ele>84.491</ele>
        <time>2019-11-16T11:42:31Z</time>
      </trkpt>
      <trkpt lat="49.82417" lon="0.9099">
        <ele>81.856</ele>
        <time>2019-11-16T11:43:04Z</time>
      </trkpt>
      <trkpt lat="49.82378" lon="0.91127">
        <ele>89.384</ele>
        <time>2019-11-16T11:43:34Z</time>
      </trkpt>
      <trkpt lat="49.82346" lon="0.91256">
        <ele>94.975</ele>
        <time>2019-11-16T11:44:04Z</time>
      </trkpt>
      <trkpt lat="49.82312" lon="0.9146">
        <ele>88.074</ele>
        <time>2019-11-16T11:44:37Z</time>
      </trkpt>
      <trkpt lat="49.82299" lon="0.91652">
        <ele>93.801</ele>
        <time>2019-11-16T11:45:07Z</time>
      </trkpt>
      <trkpt lat="49.82301" lon="0.91855">
        <ele>94.736</ele>
        <time>2019-11-16T11:45:40Z</time>
      </trkpt>
      <trkpt lat="49.82299" lon="0.92014">
        <ele>91.311</ele>
        <time>2019-11-16T11:46:10Z</time>
      </trkpt>
      <trkpt lat="49.82309" lon="0.92231">
        <ele>87.265</ele>
        <time>2019-11-16T11:46:40Z</time>
      </trkpt>
      <trkpt lat="49.8232" lon="0.9247">
        <ele>83.817</ele>
        <time>2019-11-16T11:47:13Z</time>
      </trkpt>
      <trkpt lat="49.82352" lon="0.92739">
        <ele>78.481</ele>
        <time>2019-11-16T11:47:43Z</time>
      </trkpt>
      <trkpt lat="49.82395" lon="0.92964">
        <ele>77.25</ele>
        <time>2019-11-16T11:48:16Z</time>
      </trkpt>
      <trkpt lat="49.82438" lon="0.93149">
        <ele>77.043</ele>
        <time>2019-11-16T11:48:46Z</time>
      </trkpt>
      <trkpt lat="49.8247" lon="0.93304">
        <ele>82.738</ele>
        <time>2019-11-16T11:49:16Z</time>
      </trkpt>
      <trkpt lat="49.82508" lon="0.93471">
        <ele>81.885</ele>
        <time>2019-11-16T11:49:49Z</time>
      </trkpt>
      <trkpt lat="49.82541" lon="0.93618">
        <ele>80.09</ele>
        <time>2019-11-16T11:50:19Z</time>
      </trkpt>
      <trkpt lat="49.82576" lon="0.9378">
        <ele>82.816</ele>
        <time>2019-11-16T11:50:52Z</time>
      </trkpt>
      <trkpt lat="49.82608" lon="0.93927">
        <ele>83.04</ele>
        <time>2019-11-16T11:51:22Z</time>
      </trkpt>
      <trkpt lat="49.82643" lon="0.94092">
        <ele>81.819</ele>
        <time>2019-11-16T11:51:55Z</time>
      </trkpt>
      <trkpt lat="49.82678" lon="0.94248">
        <ele>82.564</ele>
        <time>2019-11-16T11:52:25Z</time>
      </trkpt>
      <trkpt lat="49.82715" lon="0.94412">
        <ele>91.868</ele>
        <time>2019-11-16T11:52:55.001Z</time>
      </trkpt>
      <trkpt lat="49.82789" lon="0.94675">
        <ele>93.211</ele>
        <time>2019-11-16T11:53:28Z</time>
      </trkpt>
      <trkpt lat="49.82925" lon="0.94916">
        <ele>76.85</ele>
        <time>2019-11-16T11:53:58Z</time>
      </trkpt>
      <trkpt lat="49.8308" lon="0.95153">
        <ele>74.78</ele>
        <time>2019-11-16T11:54:31Z</time>
      </trkpt>
      <trkpt lat="49.83235" lon="0.9539">
        <ele>69.044</ele>
        <time>2019-11-16T11:55:01Z</time>
      </trkpt>
      <trkpt lat="49.83381" lon="0.95618">
        <ele>64.69</ele>
        <time>2019-11-16T11:55:31Z</time>
      </trkpt>
      <trkpt lat="49.83561" lon="0.9582">
        <ele>58.519</ele>
        <time>2019-11-16T11:56:04Z</time>
      </trkpt>
      <trkpt lat="49.83738" lon="0.95843">
        <ele>56.017</ele>
        <time>2019-11-16T11:56:34Z</time>
      </trkpt>
      <trkpt lat="49.83863" lon="0.95838">
        <ele>57.618</ele>
        <time>2019-11-16T11:59:37Z</time>
      </trkpt>
      <trkpt lat="49.83962" lon="0.95838">
        <ele>57.961</ele>
        <time>2019-11-16T12:00:10Z</time>
      </trkpt>
      <trkpt lat="49.84093" lon="0.95824">
        <ele>65.278</ele>
        <time>2019-11-16T12:00:43Z</time>
      </trkpt>
      <trkpt lat="49.84241" lon="0.95707">
        <ele>65.768</ele>
        <time>2019-11-16T12:01:13Z</time>
      </trkpt>
      <trkpt lat="49.84366" lon="0.95545">
        <ele>61.632</ele>
        <time>2019-11-16T12:01:43Z</time>
      </trkpt>
      <trkpt lat="49.84527" lon="0.95377">
        <ele>49.325</ele>
        <time>2019-11-16T12:02:16Z</time>
      </trkpt>
      <trkpt lat="49.8469" lon="0.9528">
        <ele>43.558</ele>
        <time>2019-11-16T12:02:46Z</time>
      </trkpt>
      <trkpt lat="49.84892" lon="0.95239">
        <ele>36.635</ele>
        <time>2019-11-16T12:03:19Z</time>
      </trkpt>
      <trkpt lat="49.85046" lon="0.95264">
        <ele>32.337</ele>
        <time>2019-11-16T12:03:49Z</time>
      </trkpt>
      <trkpt lat="49.85235" lon="0.95358">
        <ele>31.847</ele>
        <time>2019-11-16T12:04:19Z</time>
      </trkpt>
      <trkpt lat="49.85417" lon="0.95491">
        <ele>27.687</ele>
        <time>2019-11-16T12:04:52Z</time>
      </trkpt>
      <trkpt lat="49.85588" lon="0.95613">
        <ele>23.833</ele>
        <time>2019-11-16T12:05:22Z</time>
      </trkpt>
      <trkpt lat="49.85759" lon="0.95736">
        <ele>16.214</ele>
        <time>2019-11-16T12:05:55Z</time>
      </trkpt>
      <trkpt lat="49.85894" lon="0.95836">
        <ele>15.749</ele>
        <time>2019-11-16T12:06:25Z</time>
      </trkpt>
      <trkpt lat="49.86043" lon="0.9589">
        <ele>15.812</ele>
        <time>2019-11-16T12:06:55Z</time>
      </trkpt>
      <trkpt lat="49.8622" lon="0.95899">
        <ele>17.748</ele>
        <time>2019-11-16T12:07:28Z</time>
      </trkpt>
      <trkpt lat="49.86382" lon="0.95903">
        <ele>16.034</ele>
        <time>2019-11-16T12:07:58Z</time>
      </trkpt>
      <trkpt lat="49.86501" lon="0.95988">
        <ele>16.1</ele>
        <time>2019-11-16T12:08:31Z</time>
      </trkpt>
      <trkpt lat="49.86637" lon="0.95969">
        <ele>18.916</ele>
        <time>2019-11-16T12:09:01Z</time>
      </trkpt>
      <trkpt lat="49.86743" lon="0.96019">
        <ele>18.032</ele>
        <time>2019-11-16T12:09:34Z</time>
      </trkpt>
      <trkpt lat="49.86828" lon="0.96114">
        <ele>17.89</ele>
        <time>2019-11-16T12:10:04Z</time>
      </trkpt>
      <trkpt lat="49.86886" lon="0.96207">
        <ele>23.391</ele>
        <time>2019-11-16T12:10:34Z</time>
      </trkpt>
      <trkpt lat="49.86937" lon="0.96324">
        <ele>37.968</ele>
        <time>2019-11-16T12:11:07Z</time>
      </trkpt>
      <trkpt lat="49.86978" lon="0.96452">
        <ele>44.832</ele>
        <time>2019-11-16T12:11:37Z</time>
      </trkpt>
      <trkpt lat="49.87003" lon="0.96597">
        <ele>43.96</ele>
        <time>2019-11-16T12:12:10Z</time>
      </trkpt>
      <trkpt lat="49.87" lon="0.96735">
        <ele>30.811</ele>
        <time>2019-11-16T12:12:40Z</time>
      </trkpt>
      <trkpt lat="49.86978" lon="0.96855">
        <ele>33.208</ele>
        <time>2019-11-16T12:13:10Z</time>
      </trkpt>
      <trkpt lat="49.86931" lon="0.97033">
        <ele>32.053</ele>
        <time>2019-11-16T12:13:43Z</time>
      </trkpt>
      <trkpt lat="49.86893" lon="0.97171">
        <ele>32.336</ele>
        <time>2019-11-16T12:14:13Z</time>
      </trkpt>
      <trkpt lat="49.86845" lon="0.9734">
        <ele>32.648</ele>
        <time>2019-11-16T12:14:46Z</time>
      </trkpt>
      <trkpt lat="49.86814" lon="0.97478">
        <ele>37.596</ele>
        <time>2019-11-16T12:15:16Z</time>
      </trkpt>
      <trkpt lat="49.86792" lon="0.9767">
        <ele>32.745</ele>
        <time>2019-11-16T12:15:46Z</time>
      </trkpt>
      <trkpt lat="49.86783" lon="0.97843">
        <ele>32.176</ele>
        <time>2019-11-16T12:16:19Z</time>
      </trkpt>
      <trkpt lat="49.86775" lon="0.98001">
        <ele>32.704</ele>
        <time>2019-11-16T12:16:49Z</time>
      </trkpt>
      <trkpt lat="49.86766" lon="0.98168">
        <ele>35.607</ele>
        <time>2019-11-16T12:17:22Z</time>
      </trkpt>
      <trkpt lat="49.86757" lon="0.98335">
        <ele>33.943</ele>
        <time>2019-11-16T12:17:52Z</time>
      </trkpt>
      <trkpt lat="49.86749" lon="0.98499">
        <ele>37.548</ele>
        <time>2019-11-16T12:18:25Z</time>
      </trkpt>
      <trkpt lat="49.8674" lon="0.98663">
        <ele>37.386</ele>
        <time>2019-11-16T12:18:55Z</time>
      </trkpt>
      <trkpt lat="49.8673" lon="0.98837">
        <ele>36.876</ele>
        <time>2019-11-16T12:19:25Z</time>
      </trkpt>
      <trkpt lat="49.86722" lon="0.99027">
        <ele>39.758</ele>
        <time>2019-11-16T12:19:58Z</time>
      </trkpt>
      <trkpt lat="49.86726" lon="0.99169">
        <ele>40.14</ele>
        <time>2019-11-16T12:20:28Z</time>
      </trkpt>
      <trkpt lat="49.86743" lon="0.99316">
        <ele>42.686</ele>
        <time>2019-11-16T12:21:01Z</time>
      </trkpt>
      <trkpt lat="49.86762" lon="0.99441">
        <ele>43.657</ele>
        <time>2019-11-16T12:21:31Z</time>
      </trkpt>
      <trkpt lat="49.86781" lon="0.9957">
        <ele>45.312</ele>
        <time>2019-11-16T12:22:01Z</time>
      </trkpt>
      <trkpt lat="49.86787" lon="0.99706">
        <ele>47.958</ele>
        <time>2019-11-16T12:22:34Z</time>
      </trkpt>
      <trkpt lat="49.86773" lon="0.99836">
        <ele>49.262</ele>
        <time>2019-11-16T12:23:04Z</time>
      </trkpt>
      <trkpt lat="49.86743" lon="0.99987">
        <ele>52.783</ele>
        <time>2019-11-16T12:23:37Z</time>
      </trkpt>
      <trkpt lat="49.86716" lon="1.00112">
        <ele>54.361</ele>
        <time>2019-11-16T12:24:07Z</time>
      </trkpt>
      <trkpt lat="49.8669" lon="1.00241">
        <ele>51.37</ele>
        <time>2019-11-16T12:24:37Z</time>
      </trkpt>
      <trkpt lat="49.86674" lon="1.00388">
        <ele>52.521</ele>
        <time>2019-11-16T12:25:10Z</time>
      </trkpt>
      <trkpt lat="49.86661" lon="1.00518">
        <ele>56.527</ele>
        <time>2019-11-16T12:25:40Z</time>
      </trkpt>
      <trkpt lat="49.86641" lon="1.00657">
        <ele>64.595</ele>
        <time>2019-11-16T12:26:13Z</time>
      </trkpt>
      <trkpt lat="49.86625" lon="1.00788">
        <ele>66.258</ele>
        <time>2019-11-16T12:26:43Z</time>
      </trkpt>
      <trkpt lat="49.86607" lon="1.00937">
        <ele>68.946</ele>
        <time>2019-11-16T12:27:16Z</time>
      </trkpt>
      <trkpt lat="49.86593" lon="1.01045">
        <ele>65.798</ele>
        <time>2019-11-16T12:27:46Z</time>
      </trkpt>
      <trkpt lat="49.86578" lon="1.01156">
        <ele>62.7</ele>
        <time>2019-11-16T12:28:16Z</time>
      </trkpt>
      <trkpt lat="49.86557" lon="1.01283">
        <ele>64.273</ele>
        <time>2019-11-16T12:28:49Z</time>
      </trkpt>
      <trkpt lat="49.86536" lon="1.01402">
        <ele>65.673</ele>
        <time>2019-11-16T12:29:19Z</time>
      </trkpt>
      <trkpt lat="49.86525" lon="1.01475">
        <ele>64.368</ele>
        <time>2019-11-16T12:31:22Z</time>
      </trkpt>
      <trkpt lat="49.86526" lon="1.01476">
        <ele>64.723</ele>
        <time>2019-11-16T12:46:28Z</time>
      </trkpt>
      <trkpt lat="49.86496" lon="1.01603">
        <ele>73.074</ele>
        <time>2019-11-16T12:49:34Z</time>
      </trkpt>
      <trkpt lat="49.8646" lon="1.01721">
        <ele>76.367</ele>
        <time>2019-11-16T12:50:07Z</time>
      </trkpt>
      <trkpt lat="49.86422" lon="1.01841">
        <ele>74.839</ele>
        <time>2019-11-16T12:50:37Z</time>
      </trkpt>
      <trkpt lat="49.86378" lon="1.01976">
        <ele>74.178</ele>
        <time>2019-11-16T12:51:10Z</time>
      </trkpt>
      <trkpt lat="49.86337" lon="1.02108">
        <ele>75.424</ele>
        <time>2019-11-16T12:51:40Z</time>
      </trkpt>
      <trkpt lat="49.86305" lon="1.02247">
        <ele>74.805</ele>
        <time>2019-11-16T12:52:10Z</time>
      </trkpt>
      <trkpt lat="49.86281" lon="1.02412">
        <ele>75.333</ele>
        <time>2019-11-16T12:52:43Z</time>
      </trkpt>
      <trkpt lat="49.86275" lon="1.02552">
        <ele>73.482</ele>
        <time>2019-11-16T12:53:13Z</time>
      </trkpt>
      <trkpt lat="49.86282" lon="1.02721">
        <ele>75.613</ele>
        <time>2019-11-16T12:53:46Z</time>
      </trkpt>
      <trkpt lat="49.86305" lon="1.02873">
        <ele>79.673</ele>
        <time>2019-11-16T12:54:16Z</time>
      </trkpt>
      <trkpt lat="49.86331" lon="1.03043">
        <ele>81.603</ele>
        <time>2019-11-16T12:54:49Z</time>
      </trkpt>
      <trkpt lat="49.86351" lon="1.03133">
        <ele>81.615</ele>
        <time>2019-11-16T12:55:19Z</time>
      </trkpt>
      <trkpt lat="49.86364" lon="1.03281">
        <ele>81.35</ele>
        <time>2019-11-16T12:55:49Z</time>
      </trkpt>
      <trkpt lat="49.8639" lon="1.0345">
        <ele>83.057</ele>
        <time>2019-11-16T12:56:22Z</time>
      </trkpt>
      <trkpt lat="49.86414" lon="1.03609">
        <ele>82.468</ele>
        <time>2019-11-16T12:56:52Z</time>
      </trkpt>
      <trkpt lat="49.86439" lon="1.03782">
        <ele>81.857</ele>
        <time>2019-11-16T12:57:25Z</time>
      </trkpt>
      <trkpt lat="49.86461" lon="1.03941">
        <ele>82.836</ele>
        <time>2019-11-16T12:57:55Z</time>
      </trkpt>
      <trkpt lat="49.86487" lon="1.04101">
        <ele>83.851</ele>
        <time>2019-11-16T12:58:25Z</time>
      </trkpt>
      <trkpt lat="49.86517" lon="1.0431">
        <ele>83.473</ele>
        <time>2019-11-16T12:58:58Z</time>
      </trkpt>
      <trkpt lat="49.8655" lon="1.04512">
        <ele>91.282</ele>
        <time>2019-11-16T12:59:28Z</time>
      </trkpt>
      <trkpt lat="49.86599" lon="1.04731">
        <ele>96.533</ele>
        <time>2019-11-16T13:00:01Z</time>
      </trkpt>
      <trkpt lat="49.86631" lon="1.0488">
        <ele>91.553</ele>
        <time>2019-11-16T13:00:31Z</time>
      </trkpt>
      <trkpt lat="49.86696" lon="1.05079">
        <ele>91.054</ele>
        <time>2019-11-16T13:01:04Z</time>
      </trkpt>
      <trkpt lat="49.86778" lon="1.05346">
        <ele>87.834</ele>
        <time>2019-11-16T13:01:34Z</time>
      </trkpt>
      <trkpt lat="49.86871" lon="1.05639">
        <ele>82.875</ele>
        <time>2019-11-16T13:02:04Z</time>
      </trkpt>
      <trkpt lat="49.86966" lon="1.05945">
        <ele>75.402</ele>
        <time>2019-11-16T13:02:37Z</time>
      </trkpt>
      <trkpt lat="49.8707" lon="1.0616">
        <ele>76.613</ele>
        <time>2019-11-16T13:03:07Z</time>
      </trkpt>
      <trkpt lat="49.87258" lon="1.06258">
        <ele>87.552</ele>
        <time>2019-11-16T13:03:40Z</time>
      </trkpt>
      <trkpt lat="49.87448" lon="1.06213">
        <ele>74.798</ele>
        <time>2019-11-16T13:04:10Z</time>
      </trkpt>
      <trkpt lat="49.87631" lon="1.06149">
        <ele>58.536</ele>
        <time>2019-11-16T13:04:40Z</time>
      </trkpt>
      <trkpt lat="49.87824" lon="1.06085">
        <ele>50.172</ele>
        <time>2019-11-16T13:05:13Z</time>
      </trkpt>
      <trkpt lat="49.88024" lon="1.06045">
        <ele>52.617</ele>
        <time>2019-11-16T13:05:43Z</time>
      </trkpt>
      <trkpt lat="49.88229" lon="1.06009">
        <ele>57.549</ele>
        <time>2019-11-16T13:06:16Z</time>
      </trkpt>
      <trkpt lat="49.88427" lon="1.05952">
        <ele>48.4</ele>
        <time>2019-11-16T13:06:46Z</time>
      </trkpt>
      <trkpt lat="49.88636" lon="1.05896">
        <ele>42.905</ele>
        <time>2019-11-16T13:07:16Z</time>
      </trkpt>
      <trkpt lat="49.8884" lon="1.05826">
        <ele>30.29</ele>
        <time>2019-11-16T13:07:49Z</time>
      </trkpt>
      <trkpt lat="49.89029" lon="1.05662">
        <ele>24.44</ele>
        <time>2019-11-16T13:08:19Z</time>
      </trkpt>
      <trkpt lat="49.89215" lon="1.05519">
        <ele>17.864</ele>
        <time>2019-11-16T13:08:52Z</time>
      </trkpt>
      <trkpt lat="49.89418" lon="1.05451">
        <ele>21.534</ele>
        <time>2019-11-16T13:09:22Z</time>
      </trkpt>
      <trkpt lat="49.89627" lon="1.05432">
        <ele>14.362</ele>
        <time>2019-11-16T13:09:55Z</time>
      </trkpt>
      <trkpt lat="49.89653" lon="1.05413">
        <ele>14.801</ele>
        <time>2019-11-16T13:13:31Z</time>
      </trkpt>
      <trkpt lat="49.89669" lon="1.05417">
        <ele>12.185</ele>
        <time>2019-11-16T13:17:37Z</time>
      </trkpt>
      <trkpt lat="49.89828" lon="1.05348">
        <ele>12.925</ele>
        <time>2019-11-16T13:18:10Z</time>
      </trkpt>
      <trkpt lat="49.89998" lon="1.05258">
        <ele>3.782</ele>
        <time>2019-11-16T13:18:40Z</time>
      </trkpt>
      <trkpt lat="49.90135" lon="1.0519">
        <ele>9.212</ele>
        <time>2019-11-16T13:19:13Z</time>
      </trkpt>
      <trkpt lat="49.90243" lon="1.0531">
        <ele>14.795</ele>
        <time>2019-11-16T13:19:46Z</time>
      </trkpt>
      <trkpt lat="49.90344" lon="1.05446">
        <ele>13.134</ele>
        <time>2019-11-16T13:20:16Z</time>
      </trkpt>
      <trkpt lat="49.90406" lon="1.05529">
        <ele>15.468</ele>
        <time>2019-11-16T13:20:49Z</time>
      </trkpt>
      <trkpt lat="49.90455" lon="1.05594">
        <ele>18.961</ele>
        <time>2019-11-16T13:21:19Z</time>
      </trkpt>
      <trkpt lat="49.90507" lon="1.05657">
        <ele>27.555</ele>
        <time>2019-11-16T13:21:52Z</time>
      </trkpt>
      <trkpt lat="49.9057" lon="1.05667">
        <ele>31.227</ele>
        <time>2019-11-16T13:22:22Z</time>
      </trkpt>
      <trkpt lat="49.90631" lon="1.05664">
        <ele>38.371</ele>
        <time>2019-11-16T13:22:52Z</time>
      </trkpt>
      <trkpt lat="49.90706" lon="1.05658">
        <ele>50.701</ele>
        <time>2019-11-16T13:23:25Z</time>
      </trkpt>
      <trkpt lat="49.9077" lon="1.05655">
        <ele>53.843</ele>
        <time>2019-11-16T13:23:55Z</time>
      </trkpt>
      <trkpt lat="49.90841" lon="1.05689">
        <ele>50.409</ele>
        <time>2019-11-16T13:24:28Z</time>
      </trkpt>
      <trkpt lat="49.90888" lon="1.05758">
        <ele>51.516</ele>
        <time>2019-11-16T13:24:58Z</time>
      </trkpt>
      <trkpt lat="49.90914" lon="1.0585">
        <ele>50.25</ele>
        <time>2019-11-16T13:25:31Z</time>
      </trkpt>
      <trkpt lat="49.90937" lon="1.0593">
        <ele>51.458</ele>
        <time>2019-11-16T13:26:01Z</time>
      </trkpt>
      <trkpt lat="49.90956" lon="1.06011">
        <ele>54.646</ele>
        <time>2019-11-16T13:26:31Z</time>
      </trkpt>
      <trkpt lat="49.90955" lon="1.06101">
        <ele>70.157</ele>
        <time>2019-11-16T13:27:04Z</time>
      </trkpt>
      <trkpt lat="49.90931" lon="1.06172">
        <ele>82.307</ele>
        <time>2019-11-16T13:27:34Z</time>
      </trkpt>
      <trkpt lat="49.90884" lon="1.06248">
        <ele>83.067</ele>
        <time>2019-11-16T13:28:07Z</time>
      </trkpt>
      <trkpt lat="49.90849" lon="1.0632">
        <ele>83.909</ele>
        <time>2019-11-16T13:28:37Z</time>
      </trkpt>
      <trkpt lat="49.90823" lon="1.06405">
        <ele>87.037</ele>
        <time>2019-11-16T13:29:07Z</time>
      </trkpt>
      <trkpt lat="49.90914" lon="1.0656">
        <ele>85.106</ele>
        <time>2019-11-16T13:29:40Z</time>
      </trkpt>
      <trkpt lat="49.91035" lon="1.06742">
        <ele>81.016</ele>
        <time>2019-11-16T13:30:10Z</time>
      </trkpt>
      <trkpt lat="49.91161" lon="1.0694">
        <ele>76.548</ele>
        <time>2019-11-16T13:30:43Z</time>
      </trkpt>
      <trkpt lat="49.91285" lon="1.07131">
        <ele>67.001</ele>
        <time>2019-11-16T13:31:13Z</time>
      </trkpt>
      <trkpt lat="49.91404" lon="1.07317">
        <ele>70.828</ele>
        <time>2019-11-16T13:31:43Z</time>
      </trkpt>
      <trkpt lat="49.91556" lon="1.07472">
        <ele>67.44</ele>
        <time>2019-11-16T13:32:16Z</time>
      </trkpt>
      <trkpt lat="49.91747" lon="1.07425">
        <ele>65.143</ele>
        <time>2019-11-16T13:32:46Z</time>
      </trkpt>
      <trkpt lat="49.92144" lon="1.07344">
        <ele>52.612</ele>
        <time>2019-11-16T13:33:19Z</time>
      </trkpt>
      <trkpt lat="49.92284" lon="1.07306">
        <ele>42.26</ele>
        <time>2019-11-16T13:34:01Z</time>
      </trkpt>
      <trkpt lat="49.9234" lon="1.07293">
        <ele>33.717</ele>
        <time>2019-11-16T13:34:37Z</time>
      </trkpt>
      <trkpt lat="49.92383" lon="1.07277">
        <ele>30.664</ele>
        <time>2019-11-16T13:35:10Z</time>
      </trkpt>
      <trkpt lat="49.9244" lon="1.07383">
        <ele>21.951</ele>
        <time>2019-11-16T13:35:40Z</time>
      </trkpt>
      <trkpt lat="49.92482" lon="1.0748">
        <ele>12.08</ele>
        <time>2019-11-16T13:36:13Z</time>
      </trkpt>
      <trkpt lat="49.92532" lon="1.07554">
        <ele>9.886</ele>
        <time>2019-11-16T13:36:43Z</time>
      </trkpt>
      <trkpt lat="49.92596" lon="1.07667">
        <ele>5.34</ele>
        <time>2019-11-16T13:37:16Z</time>
      </trkpt>
      <trkpt lat="49.92647" lon="1.07741">
        <ele>18.512</ele>
        <time>2019-11-16T13:37:46Z</time>
      </trkpt>
      <trkpt lat="49.92674" lon="1.07782">
        <ele>20.1</ele>
        <time>2019-11-16T13:38:34Z</time>
      </trkpt>
      <trkpt lat="49.92663" lon="1.07827">
        <ele>28.109</ele>
        <time>2019-11-16T13:39:31Z</time>
      </trkpt>
      <trkpt lat="49.92647" lon="1.07871">
        <ele>20.135</ele>
        <time>2019-11-16T13:40:52Z</time>
      </trkpt>
      <trkpt lat="49.9264" lon="1.07996">
        <ele>12.52</ele>
        <time>2019-11-16T13:41:25Z</time>
      </trkpt>
      <trkpt lat="49.92641" lon="1.08127">
        <ele>17.524</ele>
        <time>2019-11-16T13:41:55Z</time>
      </trkpt>
      <trkpt lat="49.9269" lon="1.08279">
        <ele>13.343</ele>
        <time>2019-11-16T13:42:25Z</time>
      </trkpt>
      <trkpt lat="49.92731" lon="1.08463">
        <ele>6.773</ele>
        <time>2019-11-16T13:42:58Z</time>
      </trkpt>
      <trkpt lat="49.92721" lon="1.08583">
        <ele>10.825</ele>
        <time>2019-11-16T13:43:28Z</time>
      </trkpt>
      <trkpt lat="49.92748" lon="1.08788">
        <ele>13.905</ele>
        <time>2019-11-16T13:44:01Z</time>
      </trkpt>
      <trkpt lat="49.92762" lon="1.08908">
        <ele>17.394</ele>
        <time>2019-11-16T13:44:31Z</time>
      </trkpt>
      <trkpt lat="49.92776" lon="1.09027">
        <ele>24.777</ele>
        <time>2019-11-16T13:45:04Z</time>
      </trkpt>
      <trkpt lat="49.9277" lon="1.09134">
        <ele>33.371</ele>
        <time>2019-11-16T13:45:34Z</time>
      </trkpt>
      <trkpt lat="49.92758" lon="1.09233">
        <ele>45.96</ele>
        <time>2019-11-16T13:46:04Z</time>
      </trkpt>
      <trkpt lat="49.92728" lon="1.09338">
        <ele>44.035</ele>
        <time>2019-11-16T13:46:37Z</time>
      </trkpt>
      <trkpt lat="49.92704" lon="1.09431">
        <ele>46.203</ele>
        <time>2019-11-16T13:47:07Z</time>
      </trkpt>
      <trkpt lat="49.92678" lon="1.09532">
        <ele>48.452</ele>
        <time>2019-11-16T13:47:40Z</time>
      </trkpt>
      <trkpt lat="49.92659" lon="1.09618">
        <ele>50.426</ele>
        <time>2019-11-16T13:48:10Z</time>
      </trkpt>
      <trkpt lat="49.92636" lon="1.09704">
        <ele>60.468</ele>
        <time>2019-11-16T13:48:40Z</time>
      </trkpt>
      <trkpt lat="49.92608" lon="1.09798">
        <ele>57.2</ele>
        <time>2019-11-16T13:49:13Z</time>
      </trkpt>
      <trkpt lat="49.92588" lon="1.09887">
        <ele>56.004</ele>
        <time>2019-11-16T13:49:43Z</time>
      </trkpt>
      <trkpt lat="49.92629" lon="1.09842">
        <ele>54.541</ele>
        <time>2019-11-16T13:50:16Z</time>
      </trkpt>
      <trkpt lat="49.92681" lon="1.09756">
        <ele>53.243</ele>
        <time>2019-11-16T13:50:46Z</time>
      </trkpt>
      <trkpt lat="49.92771" lon="1.0961">
        <ele>52.958</ele>
        <time>2019-11-16T13:51:19Z</time>
      </trkpt>
      <trkpt lat="49.92883" lon="1.09501">
        <ele>55.03</ele>
        <time>2019-11-16T13:51:49Z</time>
      </trkpt>
      <trkpt lat="49.93002" lon="1.09425">
        <ele>49.977</ele>
        <time>2019-11-16T13:52:19Z</time>
      </trkpt>
      <trkpt lat="49.93126" lon="1.09345">
        <ele>50.779</ele>
        <time>2019-11-16T13:52:52Z</time>
      </trkpt>
      <trkpt lat="49.93181" lon="1.09432">
        <ele>44.673</ele>
        <time>2019-11-16T13:53:22Z</time>
      </trkpt>
      <trkpt lat="49.93216" lon="1.09566">
        <ele>50.562</ele>
        <time>2019-11-16T13:53:55Z</time>
      </trkpt>
      <trkpt lat="49.93263" lon="1.09705">
        <ele>56.201</ele>
        <time>2019-11-16T13:54:25Z</time>
      </trkpt>
      <trkpt lat="49.9332" lon="1.09849">
        <ele>53.927</ele>
        <time>2019-11-16T13:54:55Z</time>
      </trkpt>
      <trkpt lat="49.93384" lon="1.10018">
        <ele>53.731</ele>
        <time>2019-11-16T13:55:28Z</time>
      </trkpt>
      <trkpt lat="49.9344" lon="1.10148">
        <ele>55.356</ele>
        <time>2019-11-16T13:55:58Z</time>
      </trkpt>
      <trkpt lat="49.93515" lon="1.10267">
        <ele>55.583</ele>
        <time>2019-11-16T13:56:31Z</time>
      </trkpt>
      <trkpt lat="49.93517" lon="1.1052">
        <ele>55.013</ele>
        <time>2019-11-16T13:57:01Z</time>
      </trkpt>
      <trkpt lat="49.93517" lon="1.10729">
        <ele>57.771</ele>
        <time>2019-11-16T13:57:31Z</time>
      </trkpt>
      <trkpt lat="49.93522" lon="1.10975">
        <ele>54.106</ele>
        <time>2019-11-16T13:58:04Z</time>
      </trkpt>
      <trkpt lat="49.93531" lon="1.11327">
        <ele>47.325</ele>
        <time>2019-11-16T13:58:34Z</time>
      </trkpt>
      <trkpt lat="49.93575" lon="1.11718">
        <ele>36.996</ele>
        <time>2019-11-16T13:59:07Z</time>
      </trkpt>
      <trkpt lat="49.93733" lon="1.11876">
        <ele>22.78</ele>
        <time>2019-11-16T13:59:37Z</time>
      </trkpt>
      <trkpt lat="49.93751" lon="1.12086">
        <ele>25.848</ele>
        <time>2019-11-16T14:00:10Z</time>
      </trkpt>
      <trkpt lat="49.9374" lon="1.12235">
        <ele>28.512</ele>
        <time>2019-11-16T14:00:40Z</time>
      </trkpt>
      <trkpt lat="49.93737" lon="1.12386">
        <ele>37.451</ele>
        <time>2019-11-16T14:01:10Z</time>
      </trkpt>
      <trkpt lat="49.93761" lon="1.12552">
        <ele>36.785</ele>
        <time>2019-11-16T14:01:43Z</time>
      </trkpt>
      <trkpt lat="49.938" lon="1.12693">
        <ele>38.759</ele>
        <time>2019-11-16T14:02:13Z</time>
      </trkpt>
      <trkpt lat="49.93874" lon="1.12749">
        <ele>54.768</ele>
        <time>2019-11-16T14:02:49Z</time>
      </trkpt>
      <trkpt lat="49.93892" lon="1.12864">
        <ele>50.993</ele>
        <time>2019-11-16T14:03:19Z</time>
      </trkpt>
      <trkpt lat="49.93894" lon="1.12967">
        <ele>48.047</ele>
        <time>2019-11-16T14:03:49Z</time>
      </trkpt>
      <trkpt lat="49.93898" lon="1.13068">
        <ele>56.51</ele>
        <time>2019-11-16T14:04:22Z</time>
      </trkpt>
      <trkpt lat="49.93917" lon="1.13167">
        <ele>59.524</ele>
        <time>2019-11-16T14:04:52Z</time>
      </trkpt>
      <trkpt lat="49.93945" lon="1.13282">
        <ele>68.491</ele>
        <time>2019-11-16T14:05:31Z</time>
      </trkpt>
      <trkpt lat="49.9396" lon="1.13367">
        <ele>69.744</ele>
        <time>2019-11-16T14:06:01Z</time>
      </trkpt>
      <trkpt lat="49.93963" lon="1.13466">
        <ele>69.295</ele>
        <time>2019-11-16T14:06:31Z</time>
      </trkpt>
      <trkpt lat="49.93967" lon="1.13564">
        <ele>74.646</ele>
        <time>2019-11-16T14:07:04Z</time>
      </trkpt>
      <trkpt lat="49.93968" lon="1.13664">
        <ele>80.821</ele>
        <time>2019-11-16T14:07:37Z</time>
      </trkpt>
      <trkpt lat="49.93949" lon="1.13792">
        <ele>72.608</ele>
        <time>2019-11-16T14:08:10Z</time>
      </trkpt>
      <trkpt lat="49.93947" lon="1.13895">
        <ele>74.672</ele>
        <time>2019-11-16T14:08:40Z</time>
      </trkpt>
      <trkpt lat="49.93983" lon="1.1397">
        <ele>79.448</ele>
        <time>2019-11-16T14:09:13Z</time>
      </trkpt>
      <trkpt lat="49.94021" lon="1.14048">
        <ele>82.968</ele>
        <time>2019-11-16T14:09:46Z</time>
      </trkpt>
      <trkpt lat="49.94034" lon="1.1416">
        <ele>83.081</ele>
        <time>2019-11-16T14:10:16Z</time>
      </trkpt>
      <trkpt lat="49.94036" lon="1.14297">
        <ele>85.649</ele>
        <time>2019-11-16T14:10:49Z</time>
      </trkpt>
      <trkpt lat="49.94056" lon="1.1442">
        <ele>86.289</ele>
        <time>2019-11-16T14:11:19Z</time>
      </trkpt>
      <trkpt lat="49.94106" lon="1.14519">
        <ele>86.272</ele>
        <time>2019-11-16T14:11:52Z</time>
      </trkpt>
      <trkpt lat="49.94176" lon="1.14594">
        <ele>86.916</ele>
        <time>2019-11-16T14:12:22Z</time>
      </trkpt>
      <trkpt lat="49.94235" lon="1.14704">
        <ele>87.841</ele>
        <time>2019-11-16T14:12:52Z</time>
      </trkpt>
      <trkpt lat="49.94286" lon="1.14829">
        <ele>89.643</ele>
        <time>2019-11-16T14:13:25Z</time>
      </trkpt>
      <trkpt lat="49.94351" lon="1.14932">
        <ele>91.601</ele>
        <time>2019-11-16T14:13:55Z</time>
      </trkpt>
      <trkpt lat="49.94437" lon="1.15052">
        <ele>86.233</ele>
        <time>2019-11-16T14:14:28Z</time>
      </trkpt>
      <trkpt lat="49.94503" lon="1.15178">
        <ele>86.81</ele>
        <time>2019-11-16T14:14:58Z</time>
      </trkpt>
      <trkpt lat="49.94574" lon="1.15288">
        <ele>88.029</ele>
        <time>2019-11-16T14:15:28Z</time>
      </trkpt>
      <trkpt lat="49.94642" lon="1.15409">
        <ele>91.383</ele>
        <time>2019-11-16T14:16:01Z</time>
      </trkpt>
      <trkpt lat="49.94694" lon="1.15518">
        <ele>92.217</ele>
        <time>2019-11-16T14:16:31Z</time>
      </trkpt>
      <trkpt lat="49.94755" lon="1.15669">
        <ele>96.716</ele>
        <time>2019-11-16T14:17:04Z</time>
      </trkpt>
      <trkpt lat="49.94788" lon="1.15827">
        <ele>99.348</ele>
        <time>2019-11-16T14:17:34Z</time>
      </trkpt>
      <trkpt lat="49.9483" lon="1.15994">
        <ele>98.668</ele>
        <time>2019-11-16T14:18:07Z</time>
      </trkpt>
      <trkpt lat="49.94861" lon="1.16127">
        <ele>103.242</ele>
        <time>2019-11-16T14:18:37Z</time>
      </trkpt>
      <trkpt lat="49.94884" lon="1.16268">
        <ele>104.319</ele>
        <time>2019-11-16T14:19:07Z</time>
      </trkpt>
      <trkpt lat="49.94914" lon="1.16435">
        <ele>106.245</ele>
        <time>2019-11-16T14:19:40Z</time>
      </trkpt>
      <trkpt lat="49.9493" lon="1.16587">
        <ele>105.325</ele>
        <time>2019-11-16T14:20:10Z</time>
      </trkpt>
      <trkpt lat="49.94964" lon="1.16787">
        <ele>107.705</ele>
        <time>2019-11-16T14:20:43Z</time>
      </trkpt>
      <trkpt lat="49.95054" lon="1.17023">
        <ele>99.585</ele>
        <time>2019-11-16T14:21:13Z</time>
      </trkpt>
      <trkpt lat="49.95134" lon="1.17206">
        <ele>86.764</ele>
        <time>2019-11-16T14:21:43Z</time>
      </trkpt>
      <trkpt lat="49.95237" lon="1.17465">
        <ele>85.793</ele>
        <time>2019-11-16T14:22:16Z</time>
      </trkpt>
      <trkpt lat="49.95271" lon="1.17622">
        <ele>87.082</ele>
        <time>2019-11-16T14:22:46Z</time>
      </trkpt>
      <trkpt lat="49.9531" lon="1.17736">
        <ele>92.102</ele>
        <time>2019-11-16T14:23:19Z</time>
      </trkpt>
      <trkpt lat="49.95355" lon="1.17851">
        <ele>97.844</ele>
        <time>2019-11-16T14:23:49Z</time>
      </trkpt>
      <trkpt lat="49.95393" lon="1.17997">
        <ele>96.039</ele>
        <time>2019-11-16T14:24:19Z</time>
      </trkpt>
      <trkpt lat="49.95424" lon="1.18155">
        <ele>98.037</ele>
        <time>2019-11-16T14:24:52Z</time>
      </trkpt>
      <trkpt lat="49.95452" lon="1.18291">
        <ele>100.82</ele>
        <time>2019-11-16T14:25:22Z</time>
      </trkpt>
      <trkpt lat="49.95472" lon="1.18445">
        <ele>105.612</ele>
        <time>2019-11-16T14:25:55Z</time>
      </trkpt>
      <trkpt lat="49.95486" lon="1.18594">
        <ele>107.743</ele>
        <time>2019-11-16T14:26:25Z</time>
      </trkpt>
      <trkpt lat="49.95515" lon="1.18749">
        <ele>108.15</ele>
        <time>2019-11-16T14:26:58Z</time>
      </trkpt>
      <trkpt lat="49.95526" lon="1.18913">
        <ele>104.368</ele>
        <time>2019-11-16T14:27:28Z</time>
      </trkpt>
      <trkpt lat="49.95546" lon="1.19101">
        <ele>103.48</ele>
        <time>2019-11-16T14:27:58Z</time>
      </trkpt>
      <trkpt lat="49.95569" lon="1.19306">
        <ele>103.092</ele>
        <time>2019-11-16T14:28:31Z</time>
      </trkpt>
      <trkpt lat="49.95569" lon="1.19466">
        <ele>104.961</ele>
        <time>2019-11-16T14:29:01Z</time>
      </trkpt>
      <trkpt lat="49.95579" lon="1.19632">
        <ele>105.635</ele>
        <time>2019-11-16T14:29:34Z</time>
      </trkpt>
      <trkpt lat="49.95599" lon="1.19794">
        <ele>108.186</ele>
        <time>2019-11-16T14:30:04Z</time>
      </trkpt>
      <trkpt lat="49.95619" lon="1.19955">
        <ele>107.776</ele>
        <time>2019-11-16T14:30:34Z</time>
      </trkpt>
      <trkpt lat="49.95642" lon="1.20149">
        <ele>109.533</ele>
        <time>2019-11-16T14:31:07Z</time>
      </trkpt>
      <trkpt lat="49.95655" lon="1.20334">
        <ele>108.711</ele>
        <time>2019-11-16T14:31:37Z</time>
      </trkpt>
      <trkpt lat="49.95685" lon="1.2053">
        <ele>109.574</ele>
        <time>2019-11-16T14:32:10Z</time>
      </trkpt>
      <trkpt lat="49.95759" lon="1.20681">
        <ele>107.677</ele>
        <time>2019-11-16T14:32:40Z</time>
      </trkpt>
      <trkpt lat="49.95798" lon="1.20869">
        <ele>108.051</ele>
        <time>2019-11-16T14:33:13Z</time>
      </trkpt>
      <trkpt lat="49.95776" lon="1.21056">
        <ele>109.717</ele>
        <time>2019-11-16T14:33:43Z</time>
      </trkpt>
      <trkpt lat="49.95763" lon="1.21246">
        <ele>108.453</ele>
        <time>2019-11-16T14:34:13Z</time>
      </trkpt>
      <trkpt lat="49.95748" lon="1.21445">
        <ele>110.762</ele>
        <time>2019-11-16T14:34:46Z</time>
      </trkpt>
      <trkpt lat="49.95735" lon="1.21615">
        <ele>113.37</ele>
        <time>2019-11-16T14:35:16Z</time>
      </trkpt>
      <trkpt lat="49.95736" lon="1.21788">
        <ele>122.175</ele>
        <time>2019-11-16T14:35:49Z</time>
      </trkpt>
      <trkpt lat="49.95736" lon="1.21956">
        <ele>127.782</ele>
        <time>2019-11-16T14:36:19Z</time>
      </trkpt>
      <trkpt lat="49.95737" lon="1.22114">
        <ele>123.278</ele>
        <time>2019-11-16T14:36:49Z</time>
      </trkpt>
      <trkpt lat="49.957" lon="1.22255">
        <ele>122.047</ele>
        <time>2019-11-16T14:37:25Z</time>
      </trkpt>
      <trkpt lat="49.95811" lon="1.22314">
        <ele>116.94</ele>
        <time>2019-11-16T14:37:55Z</time>
      </trkpt>
      <trkpt lat="49.95928" lon="1.22377">
        <ele>116.107</ele>
        <time>2019-11-16T14:38:28Z</time>
      </trkpt>
      <trkpt lat="49.96054" lon="1.2241">
        <ele>116.855</ele>
        <time>2019-11-16T14:38:58Z</time>
      </trkpt>
      <trkpt lat="49.96189" lon="1.22468">
        <ele>116.59</ele>
        <time>2019-11-16T14:39:28Z</time>
      </trkpt>
      <trkpt lat="49.96321" lon="1.22546">
        <ele>113.292</ele>
        <time>2019-11-16T14:40:01Z</time>
      </trkpt>
      <trkpt lat="49.96417" lon="1.22658">
        <ele>114.908</ele>
        <time>2019-11-16T14:40:31Z</time>
      </trkpt>
      <trkpt lat="49.96521" lon="1.22795">
        <ele>115.299</ele>
        <time>2019-11-16T14:41:04Z</time>
      </trkpt>
      <trkpt lat="49.96564" lon="1.2298">
        <ele>115.769</ele>
        <time>2019-11-16T14:41:34Z</time>
      </trkpt>
      <trkpt lat="49.96717" lon="1.23066">
        <ele>111.135</ele>
        <time>2019-11-16T14:42:07Z</time>
      </trkpt>
      <trkpt lat="49.96829" lon="1.23215">
        <ele>109.379</ele>
        <time>2019-11-16T14:42:37Z</time>
      </trkpt>
      <trkpt lat="49.96914" lon="1.23321">
        <ele>112.698</ele>
        <time>2019-11-16T14:43:07Z</time>
      </trkpt>
      <trkpt lat="49.97021" lon="1.23284">
        <ele>114.927</ele>
        <time>2019-11-16T14:43:40Z</time>
      </trkpt>
      <trkpt lat="49.97133" lon="1.23223">
        <ele>115.175</ele>
        <time>2019-11-16T14:44:10Z</time>
      </trkpt>
      <trkpt lat="49.9729" lon="1.23176">
        <ele>118.147</ele>
        <time>2019-11-16T14:44:43Z</time>
      </trkpt>
      <trkpt lat="49.97441" lon="1.2315">
        <ele>116.832</ele>
        <time>2019-11-16T14:45:13Z</time>
      </trkpt>
      <trkpt lat="49.97589" lon="1.23102">
        <ele>110.731</ele>
        <time>2019-11-16T14:45:43Z</time>
      </trkpt>
      <trkpt lat="49.97751" lon="1.23041">
        <ele>111.435</ele>
        <time>2019-11-16T14:46:16Z</time>
      </trkpt>
      <trkpt lat="49.97855" lon="1.2308">
        <ele>118.46</ele>
        <time>2019-11-16T14:46:46Z</time>
      </trkpt>
      <trkpt lat="49.9796" lon="1.23172">
        <ele>114.297</ele>
        <time>2019-11-16T14:47:19Z</time>
      </trkpt>
      <trkpt lat="49.97996" lon="1.23346">
        <ele>117.962</ele>
        <time>2019-11-16T14:47:49Z</time>
      </trkpt>
      <trkpt lat="49.98031" lon="1.23495">
        <ele>117.77</ele>
        <time>2019-11-16T14:48:19Z</time>
      </trkpt>
      <trkpt lat="49.98048" lon="1.23666">
        <ele>117.703</ele>
        <time>2019-11-16T14:48:52Z</time>
      </trkpt>
      <trkpt lat="49.9805" lon="1.23838">
        <ele>121.001</ele>
        <time>2019-11-16T14:49:22Z</time>
      </trkpt>
      <trkpt lat="49.98063" lon="1.24056">
        <ele>120.032</ele>
        <time>2019-11-16T14:49:55Z</time>
      </trkpt>
      <trkpt lat="49.98083" lon="1.24284">
        <ele>114.851</ele>
        <time>2019-11-16T14:50:25Z</time>
      </trkpt>
      <trkpt lat="49.98087" lon="1.24536">
        <ele>115.193</ele>
        <time>2019-11-16T14:50:58Z</time>
      </trkpt>
      <trkpt lat="49.98069" lon="1.2471">
        <ele>116.609</ele>
        <time>2019-11-16T14:51:28Z</time>
      </trkpt>
      <trkpt lat="49.98197" lon="1.24863">
        <ele>113.482</ele>
        <time>2019-11-16T14:51:58Z</time>
      </trkpt>
      <trkpt lat="49.98326" lon="1.25024">
        <ele>110.027</ele>
        <time>2019-11-16T14:52:31Z</time>
      </trkpt>
      <trkpt lat="49.98422" lon="1.25187">
        <ele>110.899</ele>
        <time>2019-11-16T14:53:01Z</time>
      </trkpt>
      <trkpt lat="49.98547" lon="1.25394">
        <ele>106.417</ele>
        <time>2019-11-16T14:53:34Z</time>
      </trkpt>
      <trkpt lat="49.9865" lon="1.2554">
        <ele>102.02</ele>
        <time>2019-11-16T14:54:04Z</time>
      </trkpt>
      <trkpt lat="49.98774" lon="1.25741">
        <ele>98.283</ele>
        <time>2019-11-16T14:54:34Z</time>
      </trkpt>
      <trkpt lat="49.98904" lon="1.25983">
        <ele>97.728</ele>
        <time>2019-11-16T14:55:07Z</time>
      </trkpt>
      <trkpt lat="49.99013" lon="1.26162">
        <ele>95.185</ele>
        <time>2019-11-16T14:55:37Z</time>
      </trkpt>
      <trkpt lat="49.99117" lon="1.26382">
        <ele>94.82</ele>
        <time>2019-11-16T14:56:10Z</time>
      </trkpt>
      <trkpt lat="49.99209" lon="1.26582">
        <ele>92.711</ele>
        <time>2019-11-16T14:56:40Z</time>
      </trkpt>
      <trkpt lat="49.99303" lon="1.2678">
        <ele>91.751</ele>
        <time>2019-11-16T14:57:10Z</time>
      </trkpt>
      <trkpt lat="49.99403" lon="1.26992">
        <ele>91.889</ele>
        <time>2019-11-16T14:57:43Z</time>
      </trkpt>
      <trkpt lat="49.99511" lon="1.27158">
        <ele>89.757</ele>
        <time>2019-11-16T14:58:13Z</time>
      </trkpt>
      <trkpt lat="49.99649" lon="1.2733">
        <ele>89.078</ele>
        <time>2019-11-16T14:58:46Z</time>
      </trkpt>
      <trkpt lat="49.99784" lon="1.275">
        <ele>88.175</ele>
        <time>2019-11-16T14:59:16Z</time>
      </trkpt>
      <trkpt lat="49.99939" lon="1.27692">
        <ele>86.756</ele>
        <time>2019-11-16T14:59:49Z</time>
      </trkpt>
      <trkpt lat="50.00057" lon="1.27847">
        <ele>87.126</ele>
        <time>2019-11-16T15:00:19Z</time>
      </trkpt>
      <trkpt lat="50.00079" lon="1.28048">
        <ele>87.113</ele>
        <time>2019-11-16T15:00:49Z</time>
      </trkpt>
      <trkpt lat="50.0009" lon="1.28274">
        <ele>83.689</ele>
        <time>2019-11-16T15:01:22Z</time>
      </trkpt>
      <trkpt lat="50.00221" lon="1.28301">
        <ele>81.338</ele>
        <time>2019-11-16T15:01:52Z</time>
      </trkpt>
      <trkpt lat="50.00384" lon="1.28357">
        <ele>79.801</ele>
        <time>2019-11-16T15:02:25Z</time>
      </trkpt>
      <trkpt lat="50.00515" lon="1.2832">
        <ele>76.937</ele>
        <time>2019-11-16T15:02:55Z</time>
      </trkpt>
      <trkpt lat="50.00677" lon="1.28309">
        <ele>70.783</ele>
        <time>2019-11-16T15:03:25Z</time>
      </trkpt>
      <trkpt lat="50.00838" lon="1.28411">
        <ele>71.28</ele>
        <time>2019-11-16T15:03:58Z</time>
      </trkpt>
      <trkpt lat="50.00982" lon="1.28529">
        <ele>69.739</ele>
        <time>2019-11-16T15:04:28Z</time>
      </trkpt>
      <trkpt lat="50.01142" lon="1.28773">
        <ele>66.476</ele>
        <time>2019-11-16T15:05:01Z</time>
      </trkpt>
      <trkpt lat="50.01214" lon="1.29056">
        <ele>55.665</ele>
        <time>2019-11-16T15:05:31Z</time>
      </trkpt>
      <trkpt lat="50.01226" lon="1.29106">
        <ele>53.832</ele>
        <time>2019-11-16T15:17:10Z</time>
      </trkpt>
      <trkpt lat="50.01317" lon="1.2944">
        <ele>45.033</ele>
        <time>2019-11-16T15:17:43Z</time>
      </trkpt>
      <trkpt lat="50.01329" lon="1.29844">
        <ele>32.5</ele>
        <time>2019-11-16T15:18:13Z</time>
      </trkpt>
      <trkpt lat="50.01306" lon="1.30215">
        <ele>24.407</ele>
        <time>2019-11-16T15:18:46Z</time>
      </trkpt>
      <trkpt lat="50.01274" lon="1.3047">
        <ele>21.715</ele>
        <time>2019-11-16T15:19:16Z</time>
      </trkpt>
      <trkpt lat="50.01288" lon="1.30656">
        <ele>17.743</ele>
        <time>2019-11-16T15:19:49Z</time>
      </trkpt>
      <trkpt lat="50.01376" lon="1.30927">
        <ele>14.292</ele>
        <time>2019-11-16T15:20:19Z</time>
      </trkpt>
      <trkpt lat="50.01456" lon="1.31129">
        <ele>10.791</ele>
        <time>2019-11-16T15:20:49Z</time>
      </trkpt>
      <trkpt lat="50.01518" lon="1.31376">
        <ele>15.293</ele>
        <time>2019-11-16T15:21:22Z</time>
      </trkpt>
      <trkpt lat="50.01575" lon="1.31581">
        <ele>16.413</ele>
        <time>2019-11-16T15:21:52Z</time>
      </trkpt>
      <trkpt lat="50.01652" lon="1.31795">
        <ele>13.508</ele>
        <time>2019-11-16T15:22:25Z</time>
      </trkpt>
      <trkpt lat="50.01686" lon="1.31963">
        <ele>16.341</ele>
        <time>2019-11-16T15:22:55Z</time>
      </trkpt>
      <trkpt lat="50.01754" lon="1.32014">
        <ele>23.352</ele>
        <time>2019-11-16T15:23:25Z</time>
      </trkpt>
      <trkpt lat="50.01839" lon="1.32048">
        <ele>26.167</ele>
        <time>2019-11-16T15:23:58Z</time>
      </trkpt>
      <trkpt lat="50.01916" lon="1.32048">
        <ele>29.592</ele>
        <time>2019-11-16T15:24:28Z</time>
      </trkpt>
      <trkpt lat="50.02011" lon="1.32068">
        <ele>28.181</ele>
        <time>2019-11-16T15:25:01Z</time>
      </trkpt>
      <trkpt lat="50.02087" lon="1.32179">
        <ele>26.653</ele>
        <time>2019-11-16T15:25:31Z</time>
      </trkpt>
      <trkpt lat="50.0213" lon="1.32391">
        <ele>22.889</ele>
        <time>2019-11-16T15:26:04Z</time>
      </trkpt>
      <trkpt lat="50.02214" lon="1.3254">
        <ele>23.142</ele>
        <time>2019-11-16T15:26:34Z</time>
      </trkpt>
      <trkpt lat="50.02291" lon="1.32724">
        <ele>27.947</ele>
        <time>2019-11-16T15:27:04Z</time>
      </trkpt>
      <trkpt lat="50.02366" lon="1.32915">
        <ele>27.375</ele>
        <time>2019-11-16T15:27:37Z</time>
      </trkpt>
      <trkpt lat="50.02392" lon="1.33096">
        <ele>29.024</ele>
        <time>2019-11-16T15:28:07Z</time>
      </trkpt>
      <trkpt lat="50.02395" lon="1.33313">
        <ele>27.494</ele>
        <time>2019-11-16T15:28:40Z</time>
      </trkpt>
      <trkpt lat="50.02397" lon="1.33492">
        <ele>29.749</ele>
        <time>2019-11-16T15:29:10Z</time>
      </trkpt>
      <trkpt lat="50.024" lon="1.33659">
        <ele>33.71</ele>
        <time>2019-11-16T15:29:40Z</time>
      </trkpt>
      <trkpt lat="50.02395" lon="1.33837">
        <ele>33.843</ele>
        <time>2019-11-16T15:30:13Z</time>
      </trkpt>
      <trkpt lat="50.02387" lon="1.34001">
        <ele>33.616</ele>
        <time>2019-11-16T15:30:43Z</time>
      </trkpt>
      <trkpt lat="50.02382" lon="1.34172">
        <ele>35.703</ele>
        <time>2019-11-16T15:31:16Z</time>
      </trkpt>
      <trkpt lat="50.02372" lon="1.34327">
        <ele>38.734</ele>
        <time>2019-11-16T15:31:46Z</time>
      </trkpt>
      <trkpt lat="50.02355" lon="1.34471">
        <ele>40.8</ele>
        <time>2019-11-16T15:32:16Z</time>
      </trkpt>
      <trkpt lat="50.02423" lon="1.34543">
        <ele>52.282</ele>
        <time>2019-11-16T15:32:49Z</time>
      </trkpt>
      <trkpt lat="50.02472" lon="1.34621">
        <ele>55.105</ele>
        <time>2019-11-16T15:33:19Z</time>
      </trkpt>
      <trkpt lat="50.02526" lon="1.3473">
        <ele>54.177</ele>
        <time>2019-11-16T15:33:52Z</time>
      </trkpt>
      <trkpt lat="50.02589" lon="1.34794">
        <ele>56.45</ele>
        <time>2019-11-16T15:34:22Z</time>
      </trkpt>
      <trkpt lat="50.02665" lon="1.34838">
        <ele>63.317</ele>
        <time>2019-11-16T15:34:55Z</time>
      </trkpt>
      <trkpt lat="50.02733" lon="1.34875">
        <ele>71.119</ele>
        <time>2019-11-16T15:35:25Z</time>
      </trkpt>
      <trkpt lat="50.02815" lon="1.34919">
        <ele>74.354</ele>
        <time>2019-11-16T15:35:55Z</time>
      </trkpt>
      <trkpt lat="50.02892" lon="1.34996">
        <ele>73.051</ele>
        <time>2019-11-16T15:36:28Z</time>
      </trkpt>
      <trkpt lat="50.02951" lon="1.351">
        <ele>76.162</ele>
        <time>2019-11-16T15:36:58Z</time>
      </trkpt>
      <trkpt lat="50.02994" lon="1.35229">
        <ele>80.247</ele>
        <time>2019-11-16T15:37:31Z</time>
      </trkpt>
      <trkpt lat="50.03034" lon="1.35355">
        <ele>71.828</ele>
        <time>2019-11-16T15:38:01Z</time>
      </trkpt>
      <trkpt lat="50.03104" lon="1.35461">
        <ele>74.781</ele>
        <time>2019-11-16T15:38:31Z</time>
      </trkpt>
      <trkpt lat="50.03204" lon="1.35597">
        <ele>74.957</ele>
        <time>2019-11-16T15:39:04Z</time>
      </trkpt>
      <trkpt lat="50.03309" lon="1.35736">
        <ele>72.346</ele>
        <time>2019-11-16T15:39:34Z</time>
      </trkpt>
      <trkpt lat="50.03427" lon="1.35898">
        <ele>71.324</ele>
        <time>2019-11-16T15:40:07Z</time>
      </trkpt>
      <trkpt lat="50.03514" lon="1.36016">
        <ele>71.224</ele>
        <time>2019-11-16T15:40:37Z</time>
      </trkpt>
      <trkpt lat="50.03591" lon="1.36127">
        <ele>76.911</ele>
        <time>2019-11-16T15:41:07Z</time>
      </trkpt>
      <trkpt lat="50.03661" lon="1.36271">
        <ele>78.12</ele>
        <time>2019-11-16T15:41:40Z</time>
      </trkpt>
      <trkpt lat="50.03749" lon="1.3635">
        <ele>87.371</ele>
        <time>2019-11-16T15:42:10Z</time>
      </trkpt>
      <trkpt lat="50.03853" lon="1.36389">
        <ele>92.453</ele>
        <time>2019-11-16T15:42:43Z</time>
      </trkpt>
      <trkpt lat="50.0396" lon="1.36438">
        <ele>93.36</ele>
        <time>2019-11-16T15:43:13Z</time>
      </trkpt>
      <trkpt lat="50.04069" lon="1.36464">
        <ele>92.366</ele>
        <time>2019-11-16T15:43:46Z</time>
      </trkpt>
      <trkpt lat="50.04163" lon="1.36484">
        <ele>94.401</ele>
        <time>2019-11-16T15:44:16Z</time>
      </trkpt>
      <trkpt lat="50.04257" lon="1.36506">
        <ele>97.053</ele>
        <time>2019-11-16T15:44:46Z</time>
      </trkpt>
      <trkpt lat="50.0436" lon="1.3653">
        <ele>98.486</ele>
        <time>2019-11-16T15:45:19Z</time>
      </trkpt>
      <trkpt lat="50.04457" lon="1.36551">
        <ele>95.381</ele>
        <time>2019-11-16T15:45:49Z</time>
      </trkpt>
      <trkpt lat="50.0456" lon="1.36574">
        <ele>96.02</ele>
        <time>2019-11-16T15:46:22Z</time>
      </trkpt>
      <trkpt lat="50.04647" lon="1.36597">
        <ele>97.954</ele>
        <time>2019-11-16T15:46:52Z</time>
      </trkpt>
      <trkpt lat="50.0473" lon="1.36622">
        <ele>101.149</ele>
        <time>2019-11-16T15:47:22Z</time>
      </trkpt>
      <trkpt lat="50.04831" lon="1.36653">
        <ele>103.567</ele>
        <time>2019-11-16T15:47:55Z</time>
      </trkpt>
      <trkpt lat="50.04927" lon="1.3668">
        <ele>106.23</ele>
        <time>2019-11-16T15:48:25Z</time>
      </trkpt>
      <trkpt lat="50.05022" lon="1.36715">
        <ele>103.565</ele>
        <time>2019-11-16T15:48:58Z</time>
      </trkpt>
      <trkpt lat="50.05127" lon="1.36749">
        <ele>103.6</ele>
        <time>2019-11-16T15:49:28Z</time>
      </trkpt>
      <trkpt lat="50.05255" lon="1.36857">
        <ele>99.059</ele>
        <time>2019-11-16T15:49:58Z</time>
      </trkpt>
      <trkpt lat="50.05405" lon="1.37039">
        <ele>86.174</ele>
        <time>2019-11-16T15:50:31Z</time>
      </trkpt>
      <trkpt lat="50.05503" lon="1.37241">
        <ele>73.099</ele>
        <time>2019-11-16T15:51:01Z</time>
      </trkpt>
      <trkpt lat="50.05499" lon="1.37225">
        <ele>71.591</ele>
        <time>2019-11-16T15:51:52Z</time>
      </trkpt>
      <trkpt lat="50.05515" lon="1.37134">
        <ele>71.402</ele>
        <time>2019-11-16T15:52:22Z</time>
      </trkpt>
      <trkpt lat="50.05715" lon="1.37174">
        <ele>66.949</ele>
        <time>2019-11-16T15:52:55Z</time>
      </trkpt>
      <trkpt lat="50.0589" lon="1.37211">
        <ele>37.957</ele>
        <time>2019-11-16T15:53:25Z</time>
      </trkpt>
      <trkpt lat="50.06034" lon="1.37255">
        <ele>30.923</ele>
        <time>2019-11-16T15:53:55Z</time>
      </trkpt>
      <trkpt lat="50.06019" lon="1.3747">
        <ele>9.596</ele>
        <time>2019-11-16T15:54:28Z</time>
      </trkpt>
      <trkpt lat="50.05986" lon="1.37663">
        <ele>6.719</ele>
        <time>2019-11-16T15:54:58Z</time>
      </trkpt>
      <trkpt lat="50.06019" lon="1.37733">
        <ele>15.639</ele>
        <time>2019-11-16T15:55:40Z</time>
      </trkpt>
      <trkpt lat="50.06039" lon="1.37704">
        <ele>11.325</ele>
        <time>2019-11-16T15:56:52Z</time>
      </trkpt>
      <trkpt lat="50.0605" lon="1.37557">
        <ele>8.444</ele>
        <time>2019-11-16T15:57:22Z</time>
      </trkpt>
      <trkpt lat="50.06134" lon="1.37599">
        <ele>19.12</ele>
        <time>2019-11-16T15:57:55Z</time>
      </trkpt>
      <trkpt lat="50.06167" lon="1.37744">
        <ele>11.394</ele>
        <time>2019-11-16T15:58:25Z</time>
      </trkpt>
      <trkpt lat="50.06225" lon="1.37733">
        <ele>14.456</ele>
        <time>2019-11-16T15:58:58Z</time>
      </trkpt>
      <trkpt lat="50.06235" lon="1.37593">
        <ele>14.682</ele>
        <time>2019-11-16T15:59:28Z</time>
      </trkpt>
      <trkpt lat="50.06323" lon="1.37604">
        <ele>14.464</ele>
        <time>2019-11-16T15:59:58Z</time>
      </trkpt>
      <trkpt lat="50.06388" lon="1.37803">
        <ele>11.534</ele>
        <time>2019-11-16T16:00:31Z</time>
      </trkpt>
      <trkpt lat="50.06455" lon="1.37964">
        <ele>10.996</ele>
        <time>2019-11-16T16:01:01Z</time>
      </trkpt>
      <trkpt lat="50.06541" lon="1.38114">
        <ele>11.016</ele>
        <time>2019-11-16T16:01:34Z</time>
      </trkpt>
      <trkpt lat="50.06612" lon="1.38244">
        <ele>8.044</ele>
        <time>2019-11-16T16:02:04Z</time>
      </trkpt>
      <trkpt lat="50.06705" lon="1.38384">
        <ele>11.127</ele>
        <time>2019-11-16T16:02:37Z</time>
      </trkpt>
      <trkpt lat="50.06802" lon="1.38494">
        <ele>13.654</ele>
        <time>2019-11-16T16:03:07Z</time>
      </trkpt>
      <trkpt lat="50.06846" lon="1.38548">
        <ele>13.588</ele>
        <time>2019-11-16T16:04:19Z</time>
      </trkpt>
      <trkpt lat="50.06833" lon="1.38562">
        <ele>5.049</ele>
        <time>2019-11-16T16:05:04Z</time>
      </trkpt>
    </trkseg>
  </trk>
</gpx>